Radiosonde details



Informationen :

Serial : V3010046
Type : Vaisala RS41-SGP
Date of production : 24.07.2023
Frequency : 403.000MHz
Launchsite : Galeao
Nearest town : Rio Bonito, BR (10.2km)

Altitude (Max) : 28344m at 2026-08-30 12:53:06
Speed (Max) : 104km/h at altitude 13766m

Average speed : 41km/h
Average ascent rate : 6m/s
Average descent rate : -14m/s
Ascent rate (Max) : 10.4m/s
Descent rate (Max): -36.2m/s

First frame :
PU1XMG-16 at 2026-08-30 11:32:08 at altitude 429m (OG: 387m)
Last frame :
PU1XMG-16 at 2026-08-30 13:25:20 at altitude 1387m (OG: 1345m)

Flighttime : 1h53m12s
Ascent time : 1h20m58s
Descent time : 32m14s
Uptime : -
Killtimer : 7h59m

Distance (Straight line distance): 64km

Distance (Route):


Frames : 921


Measurement :

Temperature : 21.5°C
Humidity : 66.4%
Pressure : 865.2hPa


Vertical profile (SkewT) :


Elevation profile :



Receiving stations :


Receiver Frames First received Last received
PU1XMG-16 921 2026-08-30 11:32:08 2026-08-30 13:25:20

Share per receiver :



All frames :


Receiver Date Latitude Longitude Direction Speed Altitude Climb Temperature Humidity Pressure Voltage Killtimer Uptime BKT XDATA
PU1XMG-162026-08-30 13:25:20-22.62700-42.65527145°16km/h1387m-12.1m/s21.5°C66.4%865.2hPa0V00:00:0000:00:0000:00:00
PU1XMG-162026-08-30 13:25:15-22.62681-42.65540138°18km/h1445m-13.3m/s22.4°C58.8%859.7hPa0V00:00:0000:00:0000:00:00
PU1XMG-162026-08-30 13:25:07-22.62652-42.65567143°20km/h1526m-10.9m/s22.3°C56.0%851.5hPa0V00:00:0000:00:0000:00:00
PU1XMG-162026-08-30 13:24:59-22.62622-42.65604130°24km/h1609m-12.3m/s21.9°C55.7%843.5hPa0V00:00:0000:00:0000:00:00
PU1XMG-162026-08-30 13:24:49-22.62586-42.65650133°22km/h1728m-12.5m/s21.3°C55.1%832.3hPa0V07:59:0000:00:0000:00:00
PU1XMG-162026-08-30 13:24:44-22.62568-42.65672140°20km/h1788m-12.3m/s20.9°C57.2%826.4hPa0V07:59:0000:00:0000:00:00
PU1XMG-162026-08-30 13:24:39-22.62548-42.65699128°22km/h1858m-12.6m/s20.5°C57.1%819.8hPa0V07:59:0000:00:0000:00:00
PU1XMG-162026-08-30 13:24:32-22.62531-42.65725121°20km/h1928m-12.1m/s20.0°C55.6%813.0hPa0V07:59:0000:00:0000:00:00
PU1XMG-162026-08-30 13:24:26-22.62518-42.65753122°18km/h1998m-11.8m/s19.5°C57.8%806.5hPa0V07:59:0000:00:0000:00:00
PU1XMG-162026-08-30 13:24:21-22.62511-42.65774116°15km/h2056m-12.4m/s19.0°C59.0%801.2hPa0V07:59:0000:00:0000:00:00
PU1XMG-162026-08-30 13:24:16-22.62507-42.6579590°16km/h2114m-12.4m/s18.5°C60.7%795.6hPa0V07:59:0000:00:0000:00:00
PU1XMG-162026-08-30 13:24:11-22.62505-42.6582090°18km/h2174m-12.6m/s17.9°C62.7%790.2hPa0V07:59:0000:00:0000:00:00
PU1XMG-162026-08-30 13:24:05-22.62503-42.6585399°20km/h2245m-12.4m/s17.3°C64.2%783.7hPa0V07:59:0000:00:0000:00:00
PU1XMG-162026-08-30 13:23:59-22.62504-42.6588585°22km/h2318m-12.9m/s16.7°C65.8%777.1hPa0V08:00:0000:00:0000:00:00
PU1XMG-162026-08-30 13:23:54-22.62505-42.6591389°22km/h2376m-11.9m/s16.1°C67.6%771.7hPa0V08:00:0000:00:0000:00:00
PU1XMG-162026-08-30 13:23:49-22.62508-42.6594081°16km/h2438m-13.6m/s15.6°C69.6%766.2hPa0V08:00:0000:00:0000:00:00
PU1XMG-162026-08-30 13:23:43-22.62513-42.6597077°20km/h2518m-13.5m/s14.9°C72.6%759.1hPa0V08:00:0000:00:0000:00:00
PU1XMG-162026-08-30 13:23:37-22.62518-42.6599670°16km/h2598m-13.8m/s14.1°C75.0%752.1hPa0V08:00:0000:00:0000:00:00
PU1XMG-162026-08-30 13:23:32-22.62523-42.6601876°13km/h2664m-13.0m/s13.5°C77.3%746.2hPa0V08:00:0000:00:0000:00:00
PU1XMG-162026-08-30 13:23:27-22.62529-42.6603880°13km/h2730m-14.4m/s12.9°C79.8%740.3hPa0V08:00:0000:00:0000:00:00
PU1XMG-162026-08-30 13:23:22-22.62536-42.6606062°15km/h2812m-13.7m/s12.1°C82.6%733.3hPa0V08:00:0000:00:0000:00:00
PU1XMG-162026-08-30 13:23:17-22.62541-42.6607977°11km/h2878m-15.0m/s11.5°C84.1%727.4hPa0V08:00:0000:00:0000:00:00
PU1XMG-162026-08-30 13:23:10-22.62546-42.6610168°16km/h2961m-14.1m/s10.8°C86.0%720.3hPa0V08:01:0000:00:0000:00:00
PU1XMG-162026-08-30 13:23:02-22.62556-42.6613574°13km/h3082m-13.7m/s9.8°C91.0%710.0hPa0V08:01:0000:00:0000:00:00
PU1XMG-162026-08-30 13:22:56-22.62564-42.6615364°16km/h3147m-13.9m/s9.3°C90.3%704.2hPa0V08:01:0000:00:0000:00:00
PU1XMG-162026-08-30 13:22:51-22.62574-42.6617159°13km/h3215m-14.8m/s8.7°C92.6%698.7hPa0V08:01:0000:00:0000:00:00
PU1XMG-162026-08-30 13:22:46-22.62584-42.6619167°15km/h3283m-14.6m/s8.1°C95.3%693.0hPa0V08:01:0000:00:0000:00:00
PU1XMG-162026-08-30 13:22:41-22.62595-42.6621066°18km/h3352m-14.2m/s7.6°C91.4%687.3hPa0V08:01:0000:00:0000:00:00
PU1XMG-162026-08-30 13:22:29-22.62622-42.6626965°22km/h3518m-13.7m/s6.3°C84.5%673.6hPa0V08:01:0000:00:0000:00:00
PU1XMG-162026-08-30 13:22:23-22.62637-42.6630472°22km/h3601m-14.2m/s5.9°C73.5%667.0hPa0V08:01:0000:00:0000:00:00
PU1XMG-162026-08-30 13:22:18-22.62651-42.6634275°27km/h3683m-14.1m/s5.5°C62.2%660.3hPa0V08:02:0000:00:0000:00:00
PU1XMG-162026-08-30 13:22:12-22.62662-42.6637771°29km/h3752m-14.0m/s5.1°C60.1%654.8hPa0V08:02:0000:00:0000:00:00
PU1XMG-162026-08-30 13:22:08-22.62672-42.6641471°26km/h3819m-13.8m/s4.6°C62.5%649.5hPa0V08:02:0000:00:0000:00:00
PU1XMG-162026-08-30 13:22:02-22.62686-42.6646277°31km/h3899m-14.3m/s4.1°C65.1%643.0hPa0V08:02:0000:00:0000:00:00
PU1XMG-162026-08-30 13:21:57-22.62698-42.6650269°31km/h3968m-14.6m/s3.5°C67.7%637.7hPa0V08:02:0000:00:0000:00:00
PU1XMG-162026-08-30 13:21:51-22.62710-42.6654575°33km/h4036m-14.2m/s2.9°C71.5%632.3hPa0V08:02:0000:00:0000:00:00
PU1XMG-162026-08-30 13:21:46-22.62724-42.6659469°33km/h4114m-13.6m/s2.2°C75.4%626.3hPa0V08:02:0000:00:0000:00:00
PU1XMG-162026-08-30 13:21:39-22.62737-42.6664279°31km/h4194m-14.4m/s1.9°C68.7%620.0hPa0V08:02:0000:00:0000:00:00
PU1XMG-162026-08-30 13:21:34-22.62742-42.6667982°22km/h4264m-13.5m/s1.3°C75.2%614.7hPa0V08:02:0000:00:0000:00:00
PU1XMG-162026-08-30 13:21:28-22.62743-42.6671893°22km/h4341m-14.1m/s0.9°C77.8%608.8hPa0V08:02:0000:00:0000:00:00
PU1XMG-162026-08-30 13:21:22-22.62743-42.6675382°20km/h4424m-14.6m/s0.5°C70.6%602.7hPa0V08:02:0000:00:0000:00:00
PU1XMG-162026-08-30 13:21:16-22.62746-42.6678595°16km/h4506m-14.4m/s0.2°C66.6%596.6hPa0V08:02:0000:00:0000:00:00
PU1XMG-162026-08-30 13:21:10-22.62747-42.6681179°16km/h4587m-13.8m/s-0.2°C66.8%590.8hPa0V08:02:0000:00:0000:00:00
PU1XMG-162026-08-30 13:21:04-22.62751-42.6683889°15km/h4668m-14.2m/s-0.5°C59.9%584.7hPa0V08:02:0000:00:0000:00:00
PU1XMG-162026-08-30 13:20:59-22.62753-42.6686577°16km/h4749m-14.2m/s-0.5°C50.5%578.9hPa0V08:02:0000:00:0000:00:00
PU1XMG-162026-08-30 13:20:52-22.62757-42.6689288°16km/h4830m-13.6m/s-1.3°C55.2%573.1hPa0V08:02:0000:00:0000:00:00
PU1XMG-162026-08-30 13:20:47-22.62761-42.6692079°16km/h4909m-14.0m/s-2.0°C57.8%567.5hPa0V08:02:0000:00:0000:00:00
PU1XMG-162026-08-30 13:20:42-22.62763-42.6694583°20km/h4976m-13.7m/s-2.6°C59.8%562.7hPa0V08:02:0000:00:0000:00:00
PU1XMG-162026-08-30 13:20:36-22.62762-42.66979100°20km/h5054m-11.4m/s-2.7°C50.2%557.2hPa0V08:03:0000:00:0000:00:00
PU1XMG-162026-08-30 13:20:30-22.62758-42.6700999°26km/h5118m-13.3m/s-2.3°C28.0%552.7hPa0V08:03:0000:00:0000:00:00
PU1XMG-162026-08-30 13:20:17-22.62756-42.6710184°24km/h5275m-12.4m/s-2.9°C20.8%541.8hPa0V08:03:0000:00:0000:00:00
PU1XMG-162026-08-30 13:20:07-22.62762-42.6717384°27km/h5397m-13.3m/s-3.9°C26.9%533.5hPa0V08:03:0000:00:0000:00:00
PU1XMG-162026-08-30 13:20:02-22.62763-42.6721686°29km/h5470m-12.7m/s-4.1°C12.4%528.6hPa0V08:03:0000:00:0000:00:00
PU1XMG-162026-08-30 13:19:55-22.62764-42.6725981°26km/h5539m-12.1m/s-4.5°C12.2%523.9hPa0V08:03:0000:00:0000:00:00
PU1XMG-162026-08-30 13:19:49-22.62773-42.6729870°26km/h5606m-11.4m/s-5.1°C24.9%519.4hPa0V08:03:0000:00:0000:00:00
PU1XMG-162026-08-30 13:19:44-22.62786-42.6733263°22km/h5667m-12.4m/s-5.6°C24.9%515.5hPa0V08:04:0000:00:0000:00:00
PU1XMG-162026-08-30 13:19:39-22.62803-42.6736060°26km/h5730m-12.6m/s-6.0°C21.1%511.4hPa0V08:04:0000:00:0000:00:00
PU1XMG-162026-08-30 13:19:34-22.62820-42.6738855°27km/h5792m-13.0m/s-6.3°C22.5%507.4hPa0V08:04:0000:00:0000:00:00
PU1XMG-162026-08-30 13:19:28-22.62843-42.6742453°24km/h5870m-12.9m/s-6.9°C20.5%502.4hPa0V08:04:0000:00:0000:00:00
PU1XMG-162026-08-30 13:19:22-22.62867-42.6745954°24km/h5943m-13.1m/s-7.0°C21.6%497.7hPa0V08:04:0000:00:0000:00:00
PU1XMG-162026-08-30 13:19:17-22.62888-42.6748551°29km/h6005m-12.4m/s-7.3°C24.4%493.8hPa0V08:04:0000:00:0000:00:00
PU1XMG-162026-08-30 13:19:11-22.62919-42.6752241°29km/h6080m-12.8m/s-7.7°C13.8%489.0hPa0V08:04:0000:00:0000:00:00
PU1XMG-162026-08-30 13:19:07-22.62951-42.6755145°35km/h6141m-12.8m/s-8.1°C5.4%485.2hPa0V08:04:0000:00:0000:00:00
PU1XMG-162026-08-30 13:19:00-22.62987-42.6758736°31km/h6218m-12.3m/s-8.6°C5.9%480.6hPa0V08:04:0000:00:0000:00:00
PU1XMG-162026-08-30 13:18:54-22.63026-42.6762345°33km/h6290m-13.3m/s-9.2°C12.7%475.9hPa0V08:05:0000:00:0000:00:00
PU1XMG-162026-08-30 13:18:42-22.63088-42.6769952°29km/h6445m-13.3m/s-10.0°C10.7%466.6hPa0V08:05:0000:00:0000:00:00
PU1XMG-162026-08-30 13:18:37-22.63114-42.6773555°35km/h6508m-12.6m/s-10.5°C12.5%462.7hPa0V08:05:0000:00:0000:00:00
PU1XMG-162026-08-30 13:18:32-22.63140-42.6776942°33km/h6572m-12.7m/s-11.0°C18.4%458.9hPa0V08:05:0000:00:0000:00:00
PU1XMG-162026-08-30 13:18:26-22.63183-42.6781243°38km/h6648m-13.2m/s-11.0°C3.5%454.4hPa0V08:05:0000:00:0000:00:00
PU1XMG-162026-08-30 13:18:21-22.63220-42.6784741°44km/h6712m-13.4m/s-11.3°C5.9%450.6hPa0V08:05:0000:00:0000:00:00
PU1XMG-162026-08-30 13:18:16-22.63262-42.6789145°47km/h6775m-13.2m/s-11.5°C4.1%446.9hPa0V08:05:0000:00:0000:00:00
PU1XMG-162026-08-30 13:18:10-22.63315-42.6794747°53km/h6853m-13.3m/s-11.9°C3.3%442.4hPa0V08:05:0000:00:0000:00:00
PU1XMG-162026-08-30 13:18:05-22.63371-42.6801041°53km/h6934m-13.7m/s-12.4°C3.7%437.9hPa0V08:06:0000:00:0000:00:00
PU1XMG-162026-08-30 13:17:59-22.63424-42.6806446°58km/h7001m-13.9m/s-13.0°C4.3%434.1hPa0V08:06:0000:00:0000:00:00
PU1XMG-162026-08-30 13:17:55-22.63475-42.6811742°57km/h7067m-13.1m/s-13.7°C4.5%430.3hPa0V08:06:0000:00:0000:00:00
PU1XMG-162026-08-30 13:17:48-22.63542-42.6818646°64km/h7144m-13.4m/s-14.4°C5.1%425.9hPa0V08:06:0000:00:0000:00:00
PU1XMG-162026-08-30 13:17:42-22.63609-42.6825743°60km/h7224m-12.9m/s-15.1°C6.1%421.5hPa0V08:06:0000:00:0000:00:00
PU1XMG-162026-08-30 13:17:37-22.63665-42.6831848°62km/h7290m-13.6m/s-15.6°C5.9%417.7hPa0V08:06:0000:00:0000:00:00
PU1XMG-162026-08-30 13:17:31-22.63727-42.6838748°60km/h7367m-12.7m/s-16.1°C5.0%413.6hPa0V08:06:0000:00:0000:00:00
PU1XMG-162026-08-30 13:17:26-22.63785-42.6845647°53km/h7444m-12.8m/s-16.8°C4.9%409.5hPa0V08:06:0000:00:0000:00:00
PU1XMG-162026-08-30 13:17:20-22.63831-42.6851354°57km/h7508m-12.5m/s-17.2°C4.5%405.9hPa0V08:06:0000:00:0000:00:00
PU1XMG-162026-08-30 13:17:15-22.63872-42.6857455°53km/h7569m-11.8m/s-17.6°C4.9%402.6hPa0V08:07:0000:00:0000:00:00
PU1XMG-162026-08-30 13:17:09-22.63919-42.6864958°57km/h7642m-12.6m/s-18.1°C5.1%398.7hPa0V08:07:0000:00:0000:00:00
PU1XMG-162026-08-30 13:17:03-22.63964-42.6872559°49km/h7717m-12.8m/s-18.7°C5.2%394.7hPa0V08:07:0000:00:0000:00:00
PU1XMG-162026-08-30 13:16:55-22.64021-42.6882058°53km/h7816m-13.3m/s-19.4°C5.7%389.5hPa0V08:07:0000:00:0000:00:00
PU1XMG-162026-08-30 13:16:48-22.64068-42.6890460°47km/h7905m-13.7m/s-19.0°C4.8%384.9hPa0V08:07:0000:00:0000:00:00
PU1XMG-162026-08-30 13:16:42-22.64107-42.6896959°49km/h7984m-13.6m/s-19.5°C4.8%380.9hPa0V08:07:0000:00:0000:00:00
PU1XMG-162026-08-30 13:16:36-22.64146-42.6903554°44km/h8061m-12.9m/s-20.1°C4.6%376.9hPa0V08:07:0000:00:0000:00:00
PU1XMG-162026-08-30 13:16:30-22.64189-42.6909554°47km/h8138m-13.0m/s-20.6°C4.7%373.1hPa0V08:07:0000:00:0000:00:00
PU1XMG-162026-08-30 13:16:25-22.64232-42.6915552°44km/h8216m-13.2m/s-21.2°C4.9%369.4hPa0V08:07:0000:00:0000:00:00
PU1XMG-162026-08-30 13:16:20-22.64271-42.6920148°47km/h8280m-13.1m/s-21.6°C4.6%366.2hPa0V08:07:0000:00:0000:00:00
PU1XMG-162026-08-30 13:16:14-22.64311-42.6924748°46km/h8343m-13.4m/s-21.8°C4.5%362.9hPa0V08:07:0000:00:0000:00:00
PU1XMG-162026-08-30 13:16:08-22.64362-42.6929944°47km/h8419m-13.3m/s-22.2°C4.2%359.1hPa0V08:07:0000:00:0000:00:00
PU1XMG-162026-08-30 13:16:02-22.64413-42.6935850°49km/h8499m-13.5m/s-22.6°C5.3%355.3hPa0V08:07:0000:00:0000:00:00
PU1XMG-162026-08-30 13:15:58-22.64453-42.6940952°49km/h8564m-12.8m/s-22.9°C5.4%352.2hPa0V08:07:0000:00:0000:00:00
PU1XMG-162026-08-30 13:15:52-22.64493-42.6946354°55km/h8629m-12.9m/s-23.5°C5.6%349.1hPa0V08:07:0000:00:0000:00:00
PU1XMG-162026-08-30 13:15:46-22.64541-42.6953960°58km/h8707m-13.2m/s-24.2°C5.8%345.4hPa0V08:07:0000:00:0000:00:00
PU1XMG-162026-08-30 13:15:42-22.64577-42.6960662°55km/h8773m-13.3m/s-24.7°C6.2%342.4hPa0V08:07:0000:00:0000:00:00
PU1XMG-162026-08-30 13:15:35-22.64621-42.6968862°60km/h8854m-13.5m/s-25.4°C6.4%338.6hPa0V08:07:0000:00:0000:00:00
PU1XMG-162026-08-30 13:15:31-22.64657-42.6976264°60km/h8920m-13.2m/s-26.0°C6.6%335.5hPa0V08:08:0000:00:0000:00:00
PU1XMG-162026-08-30 13:15:24-22.64698-42.6984459°55km/h8999m-13.7m/s-26.6°C6.6%331.9hPa0V08:08:0000:00:0000:00:00
PU1XMG-162026-08-30 13:15:19-22.64734-42.6991361°60km/h9067m-13.4m/s-27.2°C7.0%328.8hPa0V08:08:0000:00:0000:00:00
PU1XMG-162026-08-30 13:15:13-22.64779-42.6999862°60km/h9149m-13.6m/s-27.9°C7.3%325.0hPa0V08:08:0000:00:0000:00:00
PU1XMG-162026-08-30 13:15:08-22.64814-42.7006861°57km/h9221m-13.7m/s-28.5°C7.7%322.0hPa0V08:08:0000:00:0000:00:00
PU1XMG-162026-08-30 13:14:58-22.64894-42.7022962°57km/h9370m-13.3m/s-29.8°C8.4%315.2hPa0V08:08:0000:00:0000:00:00
PU1XMG-162026-08-30 13:14:52-22.64929-42.7030162°64km/h9438m-13.8m/s-30.5°C8.7%312.2hPa0V08:08:0000:00:0000:00:00
PU1XMG-162026-08-30 13:14:47-22.64964-42.7037766°58km/h9508m-14.2m/s-31.1°C8.8%309.2hPa0V08:08:0000:00:0000:00:00
PU1XMG-162026-08-30 13:14:41-22.65003-42.7046765°66km/h9593m-14.3m/s-31.9°C9.1%305.6hPa0V08:09:0000:00:0000:00:00
PU1XMG-162026-08-30 13:14:36-22.65038-42.7054764°64km/h9659m-13.2m/s-32.3°C9.4%302.6hPa0V08:09:0000:00:0000:00:00
PU1XMG-162026-08-30 13:14:31-22.65074-42.7062966°68km/h9721m-13.1m/s-32.9°C9.6%299.9hPa0V08:09:0000:00:0000:00:00
PU1XMG-162026-08-30 13:14:26-22.65108-42.7071067°62km/h9789m-14.9m/s-33.4°C9.8%297.1hPa0V08:09:0000:00:0000:00:00
PU1XMG-162026-08-30 13:14:20-22.65152-42.7080264°64km/h9875m-12.5m/s-34.1°C10.2%293.4hPa0V08:09:0000:00:0000:00:00
PU1XMG-162026-08-30 13:14:15-22.65190-42.7087961°64km/h9940m-11.7m/s-34.6°C10.5%290.8hPa0V08:09:0000:00:0000:00:00
PU1XMG-162026-08-30 13:14:09-22.65237-42.7097063°64km/h10021m-13.6m/s-35.4°C11.1%287.5hPa0V08:09:0000:00:0000:00:00
PU1XMG-162026-08-30 13:14:04-22.65274-42.7104764°60km/h10088m-13.3m/s-36.1°C11.6%284.7hPa0V08:09:0000:00:0000:00:00
PU1XMG-162026-08-30 13:13:58-22.65319-42.7113761°64km/h10168m-12.6m/s-36.8°C12.5%281.4hPa0V08:09:0000:00:0000:00:00
PU1XMG-162026-08-30 13:13:53-22.65358-42.7121463°66km/h10235m-14.4m/s-37.5°C13.1%278.8hPa0V08:09:0000:00:0000:00:00
PU1XMG-162026-08-30 13:13:47-22.65404-42.7130661°62km/h10320m-14.0m/s-38.3°C13.9%275.3hPa0V08:10:0000:00:0000:00:00
PU1XMG-162026-08-30 13:13:42-22.65451-42.7140063°66km/h10399m-13.9m/s-39.1°C15.0%272.2hPa0V08:10:0000:00:0000:00:00
PU1XMG-162026-08-30 13:13:35-22.65496-42.7149364°62km/h10484m-14.5m/s-39.9°C16.0%268.8hPa0V08:10:0000:00:0000:00:00
PU1XMG-162026-08-30 13:13:29-22.65542-42.7158662°68km/h10568m-14.2m/s-40.7°C17.5%265.6hPa0V08:10:0000:00:0000:00:00
PU1XMG-162026-08-30 13:13:23-22.65590-42.7168462°68km/h10640m-14.0m/s-41.4°C18.4%262.8hPa0V08:10:0000:00:0000:00:00
PU1XMG-162026-08-30 13:13:06-22.65729-42.7196160°66km/h10859m-14.6m/s-43.5°C23.0%254.3hPa0V08:10:0000:00:0000:00:00
PU1XMG-162026-08-30 13:13:00-22.65779-42.7205862°71km/h10947m-13.8m/s-44.3°C24.8%251.1hPa0V08:11:0000:00:0000:00:00
PU1XMG-162026-08-30 13:12:55-22.65821-42.7214363°69km/h11019m-14.7m/s-45.0°C26.4%248.5hPa0V08:11:0000:00:0000:00:00
PU1XMG-162026-08-30 13:12:49-22.65870-42.7224262°71km/h11104m-15.0m/s-45.9°C28.3%245.3hPa0V08:11:0000:00:0000:00:00
PU1XMG-162026-08-30 13:12:43-22.65921-42.7234664°73km/h11195m-15.0m/s-46.7°C30.3%242.0hPa0V08:11:0000:00:0000:00:00
PU1XMG-162026-08-30 13:12:38-22.65965-42.7243162°71km/h11267m-14.3m/s-47.4°C31.8%239.4hPa0V08:11:0000:00:0000:00:00
PU1XMG-162026-08-30 13:12:33-22.66008-42.7251763°71km/h11339m-15.3m/s-48.1°C33.9%236.7hPa0V08:11:0000:00:0000:00:00
PU1XMG-162026-08-30 13:12:28-22.66053-42.7260663°73km/h11410m-14.4m/s-48.8°C36.1%234.1hPa0V08:11:0000:00:0000:00:00
PU1XMG-162026-08-30 13:12:22-22.66104-42.7270860°71km/h11498m-15.7m/s-49.6°C39.8%231.1hPa0V08:11:0000:00:0000:00:00
PU1XMG-162026-08-30 13:12:17-22.66152-42.7279560°73km/h11571m-15.2m/s-50.3°C43.8%228.6hPa0V08:11:0000:00:0000:00:00
PU1XMG-162026-08-30 13:12:12-22.66208-42.7288456°80km/h11640m-12.5m/s-49.8°C43.8%226.0hPa0V08:11:0000:00:0000:00:00
PU1XMG-162026-08-30 13:12:06-22.66279-42.7299154°78km/h11729m-14.3m/s-48.9°C31.1%223.1hPa0V08:12:0000:00:0000:00:00
PU1XMG-162026-08-30 13:12:01-22.66356-42.7309753°84km/h11818m-14.3m/s-48.6°C20.4%220.1hPa0V08:12:0000:00:0000:00:00
PU1XMG-162026-08-30 13:11:55-22.66425-42.7319051°91km/h11888m-11.4m/s-48.9°C12.0%217.7hPa0V08:12:0000:00:0000:00:00
PU1XMG-162026-08-30 13:11:44-22.66591-42.7340151°93km/h12041m-14.8m/s-49.6°C12.7%212.8hPa0V08:12:0000:00:0000:00:00
PU1XMG-162026-08-30 13:11:39-22.66663-42.7349350°88km/h12116m-15.9m/s-50.2°C13.2%210.4hPa0V08:12:0000:00:0000:00:00
PU1XMG-162026-08-30 13:11:33-22.66747-42.7360552°88km/h12206m-12.2m/s-50.3°C8.0%207.4hPa0V08:12:0000:00:0000:00:00
PU1XMG-162026-08-30 13:11:28-22.66828-42.7371453°84km/h12288m-14.3m/s-50.8°C7.0%204.8hPa0V08:12:0000:00:0000:00:00
PU1XMG-162026-08-30 13:11:23-22.66893-42.7380051°80km/h12358m-14.1m/s-50.9°C6.7%202.6hPa0V08:12:0000:00:0000:00:00
PU1XMG-162026-08-30 13:11:17-22.66955-42.7388454°77km/h12434m-16.2m/s-51.4°C6.8%200.4hPa0V00:00:0000:00:0000:00:00
PU1XMG-162026-08-30 13:11:11-22.67024-42.7397853°73km/h12518m-11.4m/s-52.2°C7.2%197.6hPa0V00:00:0000:00:0000:00:00
PU1XMG-162026-08-30 13:11:05-22.67091-42.7407656°73km/h12602m-11.5m/s-52.9°C7.7%195.1hPa0V00:00:0000:00:0000:00:00
PU1XMG-162026-08-30 13:11:00-22.67146-42.7416157°78km/h12671m-14.4m/s-53.5°C7.4%193.1hPa0V00:00:0000:00:0000:00:00
PU1XMG-162026-08-30 13:10:54-22.67209-42.7427060°80km/h12760m-15.1m/s-54.2°C7.8%190.4hPa0V00:00:0000:00:0000:00:00
PU1XMG-162026-08-30 13:10:48-22.67270-42.7438563°82km/h12836m-14.4m/s-54.5°C7.8%188.2hPa0V00:00:0000:00:0000:00:00
PU1XMG-162026-08-30 13:10:40-22.67345-42.7454164°84km/h12949m-15.3m/s-55.1°C7.6%184.9hPa0V00:00:0000:00:0000:00:00
PU1XMG-162026-08-30 13:10:34-22.67400-42.7466264°80km/h13032m-14.2m/s-55.4°C7.7%182.5hPa0V00:00:0000:00:0000:00:00
PU1XMG-162026-08-30 13:09:51-22.67817-42.7555864°86km/h13582m-11.6m/s-59.2°C9.9%167.3hPa0V08:13:0000:00:0000:00:00
PU1XMG-162026-08-30 13:09:42-22.67906-42.7574763°88km/h13661m-8.3m/s-59.7°C11.0%165.0hPa0V08:13:0000:00:0000:00:00
PU1XMG-162026-08-30 13:09:37-22.67967-42.7587364°88km/h13727m-12.6m/s-60.3°C10.6%163.4hPa0V08:14:0000:00:0000:00:00
PU1XMG-162026-08-30 13:09:31-22.68027-42.7599964°86km/h13790m-9.3m/s-60.8°C11.2%161.7hPa0V08:14:0000:00:0000:00:00
PU1XMG-162026-08-30 13:09:25-22.68089-42.7612463°88km/h13847m-10.2m/s-61.2°C11.2%160.2hPa0V08:14:0000:00:0000:00:00
PU1XMG-162026-08-30 13:09:19-22.68140-42.7623063°88km/h13893m-8.9m/s-61.5°C11.3%159.1hPa0V08:14:0000:00:0000:00:00
PU1XMG-162026-08-30 13:09:14-22.68205-42.7635861°91km/h13945m-8.3m/s-61.9°C11.5%157.7hPa0V08:14:0000:00:0000:00:00
PU1XMG-162026-08-30 13:09:08-22.68265-42.7646760°93km/h13987m-8.6m/s-62.2°C11.4%156.7hPa0V08:14:0000:00:0000:00:00
PU1XMG-162026-08-30 13:09:03-22.68325-42.7657560°91km/h14031m-8.5m/s-62.5°C11.8%155.5hPa0V08:14:0000:00:0000:00:00
PU1XMG-162026-08-30 13:08:59-22.68382-42.7668060°86km/h14068m-7.6m/s-62.7°C12.1%154.5hPa0V08:14:0000:00:0000:00:00
PU1XMG-162026-08-30 13:08:53-22.68450-42.7680159°88km/h14120m-10.4m/s-63.0°C11.9%153.3hPa0V08:14:0000:00:0000:00:00
PU1XMG-162026-08-30 13:08:47-22.68512-42.7690357°89km/h14159m-8.3m/s-63.1°C11.8%152.3hPa0V08:14:0000:00:0000:00:00
PU1XMG-162026-08-30 13:08:42-22.68575-42.7700256°86km/h14203m-9.0m/s-63.2°C11.6%151.2hPa0V00:00:0000:00:0000:00:00
PU1XMG-162026-08-30 13:08:36-22.68649-42.7711757°82km/h14254m-8.2m/s-63.4°C11.6%150.0hPa0V00:00:0000:00:0000:00:00
PU1XMG-162026-08-30 13:08:27-22.68751-42.7728460°78km/h14327m-7.4m/s-63.8°C11.7%148.2hPa0V00:00:0000:00:0000:00:00
PU1XMG-162026-08-30 13:08:20-22.68818-42.7740963°71km/h14380m-7.5m/s-64.0°C11.5%146.9hPa0V00:00:0000:00:0000:00:00
PU1XMG-162026-08-30 13:08:03-22.68951-42.7768264°60km/h14510m-7.6m/s-64.7°C11.8%143.8hPa0V00:00:0000:00:0000:00:00
PU1XMG-162026-08-30 13:07:48-22.69041-42.7790674°55km/h14635m-7.4m/s-65.0°C11.5%140.9hPa0V00:00:0000:00:0000:00:00
PU1XMG-162026-08-30 13:06:13-22.69442-42.7918081°37km/h15377m-9.0m/s-67.3°C12.7%124.7hPa0V08:17:0000:00:0000:00:00
PU1XMG-162026-08-30 13:06:08-22.69449-42.7922982°35km/h15421m-8.2m/s-67.6°C12.8%123.8hPa0V08:18:0000:00:0000:00:00
PU1XMG-162026-08-30 13:06:03-22.69458-42.7928280°33km/h15474m-8.9m/s-68.1°C13.0%122.7hPa0V08:18:0000:00:0000:00:00
PU1XMG-162026-08-30 13:05:55-22.69469-42.7934283°33km/h15536m-8.9m/s-68.6°C13.2%121.5hPa0V08:18:0000:00:0000:00:00
PU1XMG-162026-08-30 13:05:50-22.69472-42.7938489°31km/h15581m-9.5m/s-69.0°C13.3%120.6hPa0V08:18:0000:00:0000:00:00
PU1XMG-162026-08-30 13:05:45-22.69471-42.7943593°31km/h15635m-9.6m/s-69.5°C13.2%119.5hPa0V08:18:0000:00:0000:00:00
PU1XMG-162026-08-30 13:05:39-22.69469-42.7947797°31km/h15683m-10.1m/s-69.9°C13.0%118.5hPa0V08:18:0000:00:0000:00:00
PU1XMG-162026-08-30 13:05:33-22.69466-42.7952592°29km/h15748m-10.2m/s-70.6°C13.8%117.2hPa0V08:18:0000:00:0000:00:00
PU1XMG-162026-08-30 13:05:27-22.69457-42.79576109°37km/h15804m-9.2m/s-71.1°C13.6%116.1hPa0V08:18:0000:00:0000:00:00
PU1XMG-162026-08-30 13:05:21-22.69440-42.79632106°35km/h15861m-9.9m/s-71.5°C13.9%115.0hPa0V08:19:0000:00:0000:00:00
PU1XMG-162026-08-30 13:05:16-22.69429-42.79681102°40km/h15910m-9.7m/s-71.0°C13.1%114.1hPa0V08:19:0000:00:0000:00:00
PU1XMG-162026-08-30 13:05:10-22.69417-42.79748104°44km/h15967m-9.9m/s-71.0°C11.8%112.9hPa0V08:19:0000:00:0000:00:00
PU1XMG-162026-08-30 13:05:04-22.69399-42.79819110°46km/h16026m-9.8m/s-71.2°C11.3%111.9hPa0V08:19:0000:00:0000:00:00
PU1XMG-162026-08-30 13:04:58-22.69374-42.79894113°49km/h16084m-9.5m/s-71.4°C11.1%110.7hPa0V08:19:0000:00:0000:00:00
PU1XMG-162026-08-30 13:04:52-22.69343-42.79969118°49km/h16142m-10.0m/s-71.6°C10.7%109.7hPa0V08:19:0000:00:0000:00:00
PU1XMG-162026-08-30 13:04:47-22.69313-42.80027122°49km/h16191m-10.0m/s-71.9°C10.6%108.8hPa0V08:19:0000:00:0000:00:00
PU1XMG-162026-08-30 13:04:41-22.69276-42.80098116°49km/h16249m-9.7m/s-72.4°C10.5%107.7hPa0V08:19:0000:00:0000:00:00
PU1XMG-162026-08-30 13:04:35-22.69245-42.80165117°44km/h16309m-10.1m/s-72.8°C10.4%106.6hPa0V08:19:0000:00:0000:00:00
PU1XMG-162026-08-30 13:04:30-22.69217-42.80222121°51km/h16358m-9.7m/s-73.2°C10.3%105.7hPa0V08:19:0000:00:0000:00:00
PU1XMG-162026-08-30 13:04:23-22.69176-42.80308115°46km/h16426m-9.4m/s-73.5°C10.5%104.5hPa0V08:19:0000:00:0000:00:00
PU1XMG-162026-08-30 13:04:18-22.69154-42.80361115°38km/h16475m-9.8m/s-73.7°C10.2%103.6hPa0V08:19:0000:00:0000:00:00
PU1XMG-162026-08-30 13:04:12-22.69124-42.80413127°38km/h16533m-9.3m/s-73.7°C9.7%102.6hPa0V08:19:0000:00:0000:00:00
PU1XMG-162026-08-30 13:04:06-22.69092-42.80460126°33km/h16591m-9.5m/s-73.4°C9.2%101.6hPa0V08:19:0000:00:0000:00:00
PU1XMG-162026-08-30 13:04:01-22.69069-42.80498127°33km/h16638m-9.7m/s-73.2°C8.5%100.8hPa0V08:19:0000:00:0000:00:00
PU1XMG-162026-08-30 13:03:56-22.69044-42.80531131°31km/h16687m-9.7m/s-73.4°C8.2%99.9hPa0V08:19:0000:00:0000:00:00
PU1XMG-162026-08-30 13:03:50-22.69021-42.80571115°26km/h16745m-9.6m/s-73.8°C8.2%99.0hPa0V08:19:0000:00:0000:00:00
PU1XMG-162026-08-30 13:03:44-22.69003-42.80608132°26km/h16802m-8.9m/s-74.1°C8.6%98.0hPa0V08:19:0000:00:0000:00:00
PU1XMG-162026-08-30 13:03:39-22.68979-42.80633141°29km/h16850m-9.4m/s-74.4°C8.1%97.2hPa0V08:20:0000:00:0000:00:00
PU1XMG-162026-08-30 13:03:34-22.68946-42.80658152°35km/h16898m-9.6m/s-73.4°C7.2%96.4hPa0V08:20:0000:00:0000:00:00
PU1XMG-162026-08-30 13:03:29-22.68901-42.80681158°42km/h16947m-9.5m/s-72.7°C6.3%95.6hPa0V08:20:0000:00:0000:00:00
PU1XMG-162026-08-30 13:03:23-22.68838-42.80704165°44km/h17004m-9.7m/s-72.9°C6.3%94.7hPa0V08:20:0000:00:0000:00:00
PU1XMG-162026-08-30 13:03:17-22.68775-42.80732154°47km/h17060m-9.5m/s-73.1°C6.2%93.8hPa0V08:20:0000:00:0000:00:00
PU1XMG-162026-08-30 13:03:11-22.68712-42.80773145°51km/h17118m-9.8m/s-73.5°C6.2%92.8hPa0V08:20:0000:00:0000:00:00
PU1XMG-162026-08-30 13:03:06-22.68661-42.80820138°57km/h17167m-9.2m/s-73.1°C5.8%92.1hPa0V08:20:0000:00:0000:00:00
PU1XMG-162026-08-30 13:03:01-22.68609-42.80874136°57km/h17215m-9.7m/s-73.1°C5.7%91.3hPa0V08:20:0000:00:0000:00:00
PU1XMG-162026-08-30 13:02:55-22.68555-42.80947123°58km/h17273m-10.1m/s-73.2°C5.9%90.4hPa0V08:20:0000:00:0000:00:00
PU1XMG-162026-08-30 13:02:49-22.68510-42.81034116°62km/h17332m-10.0m/s-73.4°C5.9%89.5hPa0V08:20:0000:00:0000:00:00
PU1XMG-162026-08-30 13:02:44-22.68470-42.81129115°68km/h17391m-10.0m/s-72.0°C5.3%88.6hPa0V08:21:0000:00:0000:00:00
PU1XMG-162026-08-30 13:02:38-22.68434-42.81219114°71km/h17441m-10.2m/s-71.2°C4.8%87.8hPa0V08:21:0000:00:0000:00:00
PU1XMG-162026-08-30 13:02:33-22.68397-42.81323109°68km/h17502m-10.2m/s-70.6°C4.8%86.9hPa0V08:21:0000:00:0000:00:00
PU1XMG-162026-08-30 13:02:25-22.68368-42.8146995°69km/h17585m-10.5m/s-70.0°C4.4%85.7hPa0V08:21:0000:00:0000:00:00
PU1XMG-162026-08-30 13:02:19-22.68371-42.8155983°62km/h17637m-10.3m/s-69.1°C4.1%85.0hPa0V08:21:0000:00:0000:00:00
PU1XMG-162026-08-30 13:02:14-22.68384-42.8165385°57km/h17699m-9.9m/s-68.3°C3.8%84.1hPa0V08:21:0000:00:0000:00:00
PU1XMG-162026-08-30 13:02:08-22.68389-42.8172784°49km/h17752m-10.2m/s-67.0°C3.4%83.4hPa0V08:21:0000:00:0000:00:00
PU1XMG-162026-08-30 13:02:02-22.68399-42.8179988°37km/h17815m-10.4m/s-66.1°C3.2%82.5hPa0V08:21:0000:00:0000:00:00
PU1XMG-162026-08-30 13:01:56-22.68390-42.81857107°40km/h17871m-9.3m/s-66.2°C3.3%81.7hPa0V08:22:0000:00:0000:00:00
PU1XMG-162026-08-30 13:01:51-22.68377-42.81914100°46km/h17918m-10.0m/s-65.6°C3.1%81.1hPa0V08:22:0000:00:0000:00:00
PU1XMG-162026-08-30 13:01:40-22.68351-42.82053101°49km/h18032m-10.9m/s-64.3°C2.6%79.6hPa0V08:22:0000:00:0000:00:00
PU1XMG-162026-08-30 13:01:12-22.68371-42.8238858°35km/h18409m-16.1m/s-64.2°C2.6%74.8hPa0V08:22:0000:00:0000:00:00
PU1XMG-162026-08-30 13:01:06-22.68398-42.8242852°37km/h18481m-15.4m/s-64.3°C2.7%74.0hPa0V08:23:0000:00:0000:00:00
PU1XMG-162026-08-30 13:01:01-22.68428-42.8247363°31km/h18582m-17.2m/s-63.5°C2.4%72.8hPa0V08:23:0000:00:0000:00:00
PU1XMG-162026-08-30 13:00:55-22.68441-42.8250879°24km/h18665m-18.9m/s-63.2°C2.2%71.8hPa0V08:23:0000:00:0000:00:00
PU1XMG-162026-08-30 13:00:50-22.68442-42.8253496°16km/h18749m-14.8m/s-63.1°C2.4%70.8hPa0V08:23:0000:00:0000:00:00
PU1XMG-162026-08-30 13:00:45-22.68437-42.82558109°26km/h18817m-17.4m/s-63.5°C2.4%70.0hPa0V08:23:0000:00:0000:00:00
PU1XMG-162026-08-30 13:00:40-22.68427-42.82599105°37km/h18890m-10.6m/s-63.8°C2.7%69.2hPa0V08:23:0000:00:0000:00:00
PU1XMG-162026-08-30 13:00:34-22.68416-42.8265695°31km/h18968m-14.9m/s-63.8°C2.6%68.3hPa0V08:23:0000:00:0000:00:00
PU1XMG-162026-08-30 13:00:28-22.68417-42.8270080°22km/h19043m-13.0m/s-62.7°C2.5%67.5hPa0V08:23:0000:00:0000:00:00
PU1XMG-162026-08-30 13:00:23-22.68426-42.8273168°26km/h19121m-20.0m/s-61.5°C2.0%66.7hPa0V08:23:0000:00:0000:00:00
PU1XMG-162026-08-30 13:00:18-22.68448-42.8276852°24km/h19242m-20.1m/s-62.0°C2.1%65.5hPa0V08:23:0000:00:0000:00:00
PU1XMG-162026-08-30 13:00:11-22.68472-42.8279754°22km/h19359m-20.2m/s-62.5°C2.2%64.2hPa0V00:00:0000:00:0000:00:00
PU1XMG-162026-08-30 13:00:06-22.68492-42.8282751°31km/h19457m-20.1m/s-62.7°C2.2%63.2hPa0V00:00:0000:00:0000:00:00
PU1XMG-162026-08-30 13:00:01-22.68530-42.8286433°33km/h19572m-19.8m/s-63.5°C2.3%62.0hPa0V00:00:0000:00:0000:00:00
PU1XMG-162026-08-30 12:59:56-22.68562-42.8288323°26km/h19671m-20.0m/s-62.6°C2.1%61.0hPa0V00:00:0000:00:0000:00:00
PU1XMG-162026-08-30 12:59:46-22.68622-42.82887349°27km/h19870m-20.3m/s-62.8°C2.0%59.1hPa0V00:00:0000:00:0000:00:00
PU1XMG-162026-08-30 12:59:22-22.68696-42.82799348°7km/h20323m-16.8m/s-64.5°C2.4%54.8hPa0V00:00:0000:00:0000:00:00
PU1XMG-162026-08-30 12:59:14-22.68720-42.82791313°9km/h20480m-16.6m/s-63.4°C2.2%53.5hPa0V00:00:0000:00:0000:00:00
PU1XMG-162026-08-30 12:58:43-22.68666-42.82729180°24km/h21098m-18.8m/s-62.4°C2.0%48.4hPa0V00:00:0000:00:0000:00:00
PU1XMG-162026-08-30 12:58:38-22.68642-42.82737145°9km/h21211m-18.2m/s-62.0°C2.1%47.4hPa0V00:00:0000:00:0000:00:00
PU1XMG-162026-08-30 12:58:21-22.68611-42.82762157°9km/h21509m-20.7m/s-61.0°C1.8%45.2hPa0V08:25:0000:00:0000:00:00
PU1XMG-162026-08-30 12:58:14-22.68601-42.82773113°13km/h21616m-17.3m/s-61.2°C1.9%44.4hPa0V08:25:0000:00:0000:00:00
PU1XMG-162026-08-30 12:58:08-22.68588-42.82789154°5km/h21748m-16.9m/s-61.4°C1.9%43.4hPa0V08:25:0000:00:0000:00:00
PU1XMG-162026-08-30 12:57:57-22.68582-42.82795108°4km/h21980m-21.5m/s-61.0°C2.0%41.9hPa0V08:25:0000:00:0000:00:00
PU1XMG-162026-08-30 12:57:50-22.68575-42.82801140°7km/h22101m-22.3m/s-60.8°C1.8%41.1hPa0V08:25:0000:00:0000:00:00
PU1XMG-162026-08-30 12:57:45-22.68566-42.82806142°13km/h22173m-10.5m/s-60.4°C1.8%40.5hPa0V08:25:0000:00:0000:00:00
PU1XMG-162026-08-30 12:57:40-22.68552-42.82817149°15km/h22223m-10.7m/s-60.1°C1.8%40.2hPa0V00:00:0000:00:0000:00:00
PU1XMG-162026-08-30 12:57:36-22.68534-42.82831141°16km/h22277m-13.3m/s-59.6°C1.7%39.8hPa0V00:00:0000:00:0000:00:00
PU1XMG-162026-08-30 12:57:29-22.68517-42.82852125°15km/h22398m-21.2m/s-59.0°C1.6%39.2hPa0V00:00:0000:00:0000:00:00
PU1XMG-162026-08-30 12:57:23-22.68509-42.82867130°7km/h22530m-23.5m/s-59.4°C1.6%38.3hPa0V00:00:0000:00:0000:00:00
PU1XMG-162026-08-30 12:57:16-22.68498-42.82875109°7km/h22707m-25.5m/s-59.9°C1.6%37.3hPa0V00:00:0000:00:0000:00:00
PU1XMG-162026-08-30 12:57:11-22.68498-42.8288061°5km/h22814m-20.3m/s-59.9°C1.7%36.6hPa0V00:00:0000:00:0000:00:00
PU1XMG-162026-08-30 12:57:00-22.68506-42.828690km/h23056m-21.9m/s-58.8°C1.5%35.2hPa0V00:00:0000:00:0000:00:00
PU1XMG-162026-08-30 12:56:54-22.68524-42.82876348°15km/h23209m-20.3m/s-59.3°C1.7%34.3hPa0V00:00:0000:00:0000:00:00
PU1XMG-162026-08-30 12:56:47-22.68526-42.82862223°16km/h23336m-24.3m/s-59.4°C1.7%33.7hPa0V00:00:0000:00:0000:00:00
PU1XMG-162026-08-30 12:56:39-22.68515-42.828580km/h23536m-22.5m/s-58.4°C1.6%32.6hPa0V00:00:0000:00:0000:00:00
PU1XMG-162026-08-30 12:56:23-22.68464-42.82856250°7km/h23852m-17.1m/s-57.0°C1.5%31.0hPa0V00:00:0000:00:0000:00:00
PU1XMG-162026-08-30 12:56:13-22.68443-42.82799237°29km/h24041m-22.2m/s-57.2°C1.5%30.0hPa0V00:00:0000:00:0000:00:00
PU1XMG-162026-08-30 12:56:07-22.68420-42.82772226°13km/h24183m-22.4m/s-57.0°C1.5%29.4hPa0V00:00:0000:00:0000:00:00
PU1XMG-162026-08-30 12:55:54-22.68373-42.82760181°18km/h24452m-24.7m/s-56.0°C1.4%28.2hPa0V00:00:0000:00:0000:00:00
PU1XMG-162026-08-30 12:55:48-22.68351-42.82759191°22km/h24589m-23.4m/s-56.0°C1.4%27.5hPa0V00:00:0000:00:0000:00:00
PU1XMG-162026-08-30 12:55:42-22.68304-42.82763166°24km/h24743m-20.3m/s-55.4°C1.4%26.9hPa0V00:00:0000:00:0000:00:00
PU1XMG-162026-08-30 12:55:36-22.68278-42.82779139°20km/h24854m-20.6m/s-54.5°C1.4%26.4hPa0V00:00:0000:00:0000:00:00
PU1XMG-162026-08-30 12:55:30-22.68248-42.82810136°29km/h24976m-22.8m/s-53.6°C1.4%25.9hPa0V00:00:0000:00:0000:00:00
PU1XMG-162026-08-30 12:55:23-22.68218-42.82838130°20km/h25137m-23.5m/s-53.2°C1.3%25.3hPa0V00:00:0000:00:0000:00:00
PU1XMG-162026-08-30 12:54:37-22.68010-42.82923159°18km/h26177m-20.3m/s-52.2°C1.1%21.5hPa0V00:00:0000:00:0000:00:00
PU1XMG-162026-08-30 12:54:21-22.67929-42.82914139°22km/h26520m-20.4m/s-52.4°C1.2%20.3hPa0V00:00:0000:00:0000:00:00
PU1XMG-162026-08-30 12:54:15-22.67903-42.82942135°22km/h26636m-19.6m/s-52.0°C1.2%20.0hPa0V00:00:0000:00:0000:00:00
PU1XMG-162026-08-30 12:54:09-22.67884-42.82973110°24km/h26755m-19.3m/s-51.8°C1.2%19.6hPa0V00:00:0000:00:0000:00:00
PU1XMG-162026-08-30 12:53:57-22.67867-42.83018130°20km/h27002m-32.5m/s-50.8°C1.2%18.9hPa0V00:00:0000:00:0000:00:00
PU1XMG-162026-08-30 12:53:53-22.67854-42.83041112°16km/h27182m-36.2m/s-50.2°C1.1%18.4hPa0V00:00:0000:00:0000:00:00
PU1XMG-162026-08-30 12:53:42-22.67818-42.83079171°22km/h27482m-24.0m/s-49.4°C1.1%17.5hPa0V00:00:0000:00:0000:00:00
PU1XMG-162026-08-30 12:53:34-22.67793-42.8308986°18km/h27642m-24.8m/s-48.6°C1.1%17.0hPa0V00:00:0000:00:0000:00:00
PU1XMG-162026-08-30 12:53:29-22.67799-42.83123113°20km/h27793m-26.5m/s-47.6°C0.9%16.7hPa0V00:00:0000:00:0000:00:00
PU1XMG-162026-08-30 12:53:13-22.67809-42.83199122°27km/h28127m-19.4m/s-46.6°C0.9%15.8hPa0V00:00:0000:00:0000:00:00
PU1XMG-162026-08-30 12:53:06-22.67791-42.8325884°26km/h28344m-29.6m/s-45.0°C0.8%15.3hPa0V00:00:0000:00:0000:00:00
PU1XMG-162026-08-30 12:52:41-22.67773-42.83399114°26km/h28258m6.2m/s-46.2°C0.8%15.4hPa0V00:00:0000:00:0000:00:00
PU1XMG-162026-08-30 12:52:36-22.67763-42.8343093°18km/h28225m5.0m/s-46.6°C0.9%15.5hPa0V00:00:0000:00:0000:00:00
PU1XMG-162026-08-30 12:52:30-22.67762-42.8345787°18km/h28187m5.4m/s-46.7°C0.9%15.6hPa0V00:00:0000:00:0000:00:00
PU1XMG-162026-08-30 12:52:22-22.67764-42.8350174°22km/h28145m5.3m/s-46.7°C0.9%15.7hPa0V00:00:0000:00:0000:00:00
PU1XMG-162026-08-30 12:52:16-22.67762-42.83520109°11km/h28101m7.4m/s-46.8°C0.8%15.8hPa0V00:00:0000:00:0000:00:00
PU1XMG-162026-08-30 12:52:10-22.67761-42.8355376°29km/h28070m4.6m/s-47.2°C0.9%15.9hPa0V00:00:0000:00:0000:00:00
PU1XMG-162026-08-30 12:52:04-22.67756-42.83578178°7km/h28026m5.4m/s-47.6°C0.9%16.0hPa0V00:00:0000:00:0000:00:00
PU1XMG-162026-08-30 12:51:56-22.67746-42.8361776°26km/h27976m5.5m/s-47.6°C0.9%16.1hPa0V00:00:0000:00:0000:00:00
PU1XMG-162026-08-30 12:51:33-22.67770-42.8374294°18km/h27831m6.8m/s-48.2°C0.9%16.5hPa0V00:00:0000:00:0000:00:00
PU1XMG-162026-08-30 12:51:28-22.67768-42.8376489°22km/h27798m5.6m/s-48.7°C1.0%16.6hPa0V00:00:0000:00:0000:00:00
PU1XMG-162026-08-30 12:51:22-22.67762-42.8381299°33km/h27758m4.9m/s-49.0°C1.0%16.6hPa0V00:00:0000:00:0000:00:00
PU1XMG-162026-08-30 12:51:16-22.67748-42.83849107°16km/h27719m5.7m/s-49.2°C1.0%16.8hPa0V00:00:0000:00:0000:00:00
PU1XMG-162026-08-30 12:51:10-22.67730-42.83871130°22km/h27678m6.4m/s-49.4°C1.0%16.9hPa0V00:00:0000:00:0000:00:00
PU1XMG-162026-08-30 12:51:03-22.67696-42.83902145°20km/h27630m6.1m/s-49.8°C1.1%17.0hPa0V00:00:0000:00:0000:00:00
PU1XMG-162026-08-30 12:50:57-22.67665-42.83912166°18km/h27587m7.0m/s-49.9°C1.1%17.1hPa0V00:00:0000:00:0000:00:00
PU1XMG-162026-08-30 12:50:52-22.67639-42.83919167°22km/h27553m7.3m/s-49.8°C1.1%17.2hPa0V00:00:0000:00:0000:00:00
PU1XMG-162026-08-30 12:50:47-22.67616-42.83927157°20km/h27516m5.3m/s-49.7°C1.0%17.3hPa0V00:00:0000:00:0000:00:00
PU1XMG-162026-08-30 12:50:24-22.67538-42.8401984°20km/h27350m7.0m/s-50.1°C1.1%17.8hPa0V00:00:0000:00:0000:00:00
PU1XMG-162026-08-30 12:50:17-22.67533-42.8404493°16km/h27307m6.8m/s-50.3°C1.1%17.9hPa0V00:00:0000:00:0000:00:00
PU1XMG-162026-08-30 12:50:12-22.67527-42.84070111°24km/h27265m8.4m/s-50.6°C1.1%18.0hPa0V00:00:0000:00:0000:00:00
PU1XMG-162026-08-30 12:50:05-22.67508-42.84097163°18km/h27221m7.4m/s-50.8°C1.1%18.1hPa0V00:00:0000:00:0000:00:00
PU1XMG-162026-08-30 12:50:01-22.67487-42.84106165°20km/h27186m7.0m/s-50.7°C1.0%18.2hPa0V00:00:0000:00:0000:00:00
PU1XMG-162026-08-30 12:49:49-22.67456-42.84146116°15km/h27105m7.9m/s-50.7°C1.1%18.5hPa0V00:00:0000:00:0000:00:00
PU1XMG-162026-08-30 12:49:44-22.67452-42.8416793°16km/h27063m8.0m/s-50.8°C1.0%18.6hPa0V00:00:0000:00:0000:00:00
PU1XMG-162026-08-30 12:49:38-22.67450-42.8419686°26km/h27026m5.1m/s-51.0°C1.1%18.7hPa0V00:00:0000:00:0000:00:00
PU1XMG-162026-08-30 12:49:33-22.67440-42.84226128°22km/h26991m8.7m/s-51.1°C1.1%18.8hPa0V00:00:0000:00:0000:00:00
PU1XMG-162026-08-30 12:49:26-22.67416-42.8423290°4km/h26934m5.9m/s-51.2°C1.1%19.0hPa0V00:00:0000:00:0000:00:00
PU1XMG-162026-08-30 12:49:04-22.67383-42.84319134°27km/h26780m6.0m/s-51.7°C1.2%19.4hPa0V00:00:0000:00:0000:00:00
PU1XMG-162026-08-30 12:48:54-22.67362-42.8436299°20km/h26718m5.9m/s-51.9°C1.2%19.6hPa0V00:00:0000:00:0000:00:00
PU1XMG-162026-08-30 12:48:49-22.67345-42.84392132°27km/h26679m6.0m/s-51.8°C1.2%19.8hPa0V00:00:0000:00:0000:00:00
PU1XMG-162026-08-30 12:48:44-22.67318-42.84416134°27km/h26646m7.9m/s-51.9°C1.2%19.8hPa0V00:00:0000:00:0000:00:00
PU1XMG-162026-08-30 12:48:39-22.67296-42.84441134°22km/h26613m6.8m/s-52.1°C1.2%20.0hPa0V00:00:0000:00:0000:00:00
PU1XMG-162026-08-30 12:48:32-22.67275-42.84465149°22km/h26574m5.6m/s-52.4°C1.2%20.1hPa0V00:00:0000:00:0000:00:00
PU1XMG-162026-08-30 12:48:27-22.67248-42.84482170°18km/h26536m5.4m/s-52.6°C1.2%20.2hPa0V00:00:0000:00:0000:00:00
PU1XMG-162026-08-30 12:47:09-22.66854-42.84523172°20km/h26043m5.1m/s-52.0°C1.1%21.8hPa0V00:00:0000:00:0000:00:00
PU1XMG-162026-08-30 12:47:03-22.66804-42.84519187°33km/h25998m6.0m/s-52.1°C1.2%22.0hPa0V00:00:0000:00:0000:00:00
PU1XMG-162026-08-30 12:46:57-22.66760-42.84508192°26km/h25956m6.3m/s-52.1°C1.2%22.1hPa0V00:00:0000:00:0000:00:00
PU1XMG-162026-08-30 12:46:36-22.66640-42.84480180°18km/h25810m9.0m/s-52.6°C1.2%22.6hPa0V00:00:0000:00:0000:00:00
PU1XMG-162026-08-30 12:46:26-22.66608-42.84473162°18km/h25749m7.3m/s-52.3°C1.2%22.9hPa0V00:00:0000:00:0000:00:00
PU1XMG-162026-08-30 12:46:22-22.66589-42.84486121°13km/h25715m5.1m/s-52.1°C1.2%22.9hPa0V00:00:0000:00:0000:00:00
PU1XMG-162026-08-30 12:46:16-22.66583-42.84493104°9km/h25681m7.1m/s-51.9°C1.1%23.1hPa0V00:00:0000:00:0000:00:00
PU1XMG-162026-08-30 12:46:11-22.66574-42.84509135°18km/h25641m8.3m/s-51.9°C1.1%23.3hPa0V00:00:0000:00:0000:00:00
PU1XMG-162026-08-30 12:46:05-22.66558-42.84527128°16km/h25607m5.3m/s-51.9°C1.1%23.4hPa0V00:00:0000:00:0000:00:00
PU1XMG-162026-08-30 12:46:00-22.66546-42.84556121°18km/h25566m6.5m/s-52.3°C1.2%23.5hPa0V00:00:0000:00:0000:00:00
PU1XMG-162026-08-30 12:45:54-22.66537-42.84581124°22km/h25531m4.7m/s-52.4°C1.2%23.7hPa0V00:00:0000:00:0000:00:00
PU1XMG-162026-08-30 12:45:47-22.66507-42.84630123°35km/h25481m8.3m/s-52.4°C1.2%23.8hPa0V00:00:0000:00:0000:00:00
PU1XMG-162026-08-30 12:45:41-22.66485-42.84675108°27km/h25438m5.9m/s-52.3°C1.2%24.0hPa0V00:00:0000:00:0000:00:00
PU1XMG-162026-08-30 12:45:36-22.66472-42.84708109°27km/h25400m6.2m/s-52.3°C1.2%24.1hPa0V00:00:0000:00:0000:00:00
PU1XMG-162026-08-30 12:45:12-22.66381-42.84845133°26km/h25247m7.1m/s-52.9°C1.2%24.7hPa0V00:00:0000:00:0000:00:00
PU1XMG-162026-08-30 12:45:07-22.66365-42.84876107°29km/h25214m7.4m/s-53.0°C1.2%24.9hPa0V00:00:0000:00:0000:00:00
PU1XMG-162026-08-30 12:45:02-22.66353-42.84913130°24km/h25175m6.2m/s-53.3°C1.2%25.0hPa0V00:00:0000:00:0000:00:00
PU1XMG-162026-08-30 12:44:54-22.66316-42.84949131°24km/h25123m7.7m/s-53.5°C1.2%25.2hPa0V00:00:0000:00:0000:00:00
PU1XMG-162026-08-30 12:44:33-22.66232-42.85025135°18km/h24992m6.5m/s-53.6°C1.3%25.7hPa0V00:00:0000:00:0000:00:00
PU1XMG-162026-08-30 12:44:24-22.66209-42.85064109°20km/h24935m5.4m/s-53.8°C1.2%26.0hPa0V00:00:0000:00:0000:00:00
PU1XMG-162026-08-30 12:44:19-22.66197-42.85094125°18km/h24908m7.0m/s-53.8°C1.2%26.1hPa0V00:00:0000:00:0000:00:00
PU1XMG-162026-08-30 12:44:11-22.66160-42.85122142°29km/h24867m5.6m/s-54.5°C1.3%26.3hPa0V00:00:0000:00:0000:00:00
PU1XMG-162026-08-30 12:44:07-22.66132-42.85147146°24km/h24838m7.2m/s-54.9°C1.3%26.4hPa0V00:00:0000:00:0000:00:00
PU1XMG-162026-08-30 12:44:01-22.66095-42.85159168°24km/h24802m6.0m/s-55.0°C1.3%26.6hPa0V00:00:0000:00:0000:00:00
PU1XMG-162026-08-30 12:43:54-22.66058-42.85176147°16km/h24762m5.0m/s-55.2°C1.4%26.7hPa0V00:00:0000:00:0000:00:00
PU1XMG-162026-08-30 12:43:48-22.66030-42.85184189°20km/h24728m5.1m/s-55.3°C1.3%26.9hPa0V00:00:0000:00:0000:00:00
PU1XMG-162026-08-30 12:42:41-22.65757-42.85149169°7km/h24322m7.1m/s-56.7°C1.4%28.7hPa0V00:00:0000:00:0000:00:00
PU1XMG-162026-08-30 12:42:32-22.65731-42.85133215°18km/h24272m6.4m/s-57.0°C1.5%28.9hPa0V00:00:0000:00:0000:00:00
PU1XMG-162026-08-30 12:42:27-22.65714-42.85119254°11km/h24235m5.0m/s-57.0°C1.5%29.0hPa0V00:00:0000:00:0000:00:00
PU1XMG-162026-08-30 12:42:21-22.65699-42.85106221°15km/h24197m6.1m/s-57.0°C1.5%29.2hPa0V00:00:0000:00:0000:00:00
PU1XMG-162026-08-30 12:42:16-22.65680-42.85084243°26km/h24165m8.1m/s-56.9°C1.5%29.4hPa0V00:00:0000:00:0000:00:00
PU1XMG-162026-08-30 12:42:07-22.65656-42.85018246°31km/h24107m6.1m/s-56.8°C1.4%29.7hPa0V00:00:0000:00:0000:00:00
PU1XMG-162026-08-30 12:42:00-22.65634-42.84977251°33km/h24070m6.5m/s-56.9°C1.5%29.8hPa0V00:00:0000:00:0000:00:00
PU1XMG-162026-08-30 12:41:56-22.65624-42.84929265°38km/h24038m6.0m/s-56.7°C1.5%30.0hPa0V00:00:0000:00:0000:00:00
PU1XMG-162026-08-30 12:41:49-22.65610-42.84880257°22km/h23998m7.7m/s-56.7°C1.5%30.2hPa0V00:00:0000:00:0000:00:00
PU1XMG-162026-08-30 12:41:44-22.65605-42.84842276°26km/h23955m7.8m/s-56.5°C1.5%30.4hPa0V00:00:0000:00:0000:00:00
PU1XMG-162026-08-30 12:41:37-22.65607-42.84791272°20km/h23906m6.9m/s-56.4°C1.5%30.6hPa0V00:00:0000:00:0000:00:00
PU1XMG-162026-08-30 12:41:30-22.65606-42.84766286°13km/h23864m7.0m/s-56.3°C1.4%30.8hPa0V00:00:0000:00:0000:00:00
PU1XMG-162026-08-30 12:41:25-22.65607-42.84749277°9km/h23823m7.4m/s-56.3°C1.4%31.0hPa0V00:00:0000:00:0000:00:00
PU1XMG-162026-08-30 12:41:20-22.65607-42.84737258°2km/h23788m5.7m/s-56.4°C1.4%31.2hPa0V00:00:0000:00:0000:00:00
PU1XMG-162026-08-30 12:41:15-22.65607-42.8473525°4km/h23754m5.4m/s-56.9°C1.4%31.4hPa0V00:00:0000:00:0000:00:00
PU1XMG-162026-08-30 12:41:09-22.65601-42.84732175°15km/h23718m5.1m/s-57.4°C1.6%31.5hPa0V00:00:0000:00:0000:00:00
PU1XMG-162026-08-30 12:40:56-22.65536-42.84749181°9km/h23624m7.7m/s-57.7°C1.5%32.0hPa0V00:00:0000:00:0000:00:00
PU1XMG-162026-08-30 12:40:50-22.65534-42.84748331°4km/h23590m6.1m/s-57.5°C1.5%32.2hPa0V00:00:0000:00:0000:00:00
PU1XMG-162026-08-30 12:40:44-22.65532-42.84750110°7km/h23550m6.4m/s-57.5°C1.5%32.4hPa0V00:00:0000:00:0000:00:00
PU1XMG-162026-08-30 12:40:40-22.65529-42.8475976°7km/h23516m5.9m/s-57.4°C1.4%32.6hPa0V00:00:0000:00:0000:00:00
PU1XMG-162026-08-30 12:40:34-22.65530-42.84762156°2km/h23476m4.8m/s-57.9°C1.5%32.8hPa0V00:00:0000:00:0000:00:00
PU1XMG-162026-08-30 12:40:29-22.65522-42.84760161°7km/h23442m5.7m/s-58.1°C1.5%33.0hPa0V00:00:0000:00:0000:00:00
PU1XMG-162026-08-30 12:40:24-22.65513-42.84762182°5km/h23412m7.4m/s-58.3°C1.5%33.1hPa0V00:00:0000:00:0000:00:00
PU1XMG-162026-08-30 12:40:18-22.65501-42.84758216°7km/h23373m5.5m/s-58.9°C1.6%33.4hPa0V00:00:0000:00:0000:00:00
PU1XMG-162026-08-30 12:40:11-22.65491-42.84750181°5km/h23334m7.0m/s-58.9°C1.6%33.5hPa0V00:00:0000:00:0000:00:00
PU1XMG-162026-08-30 12:40:06-22.65488-42.84744272°15km/h23296m6.7m/s-58.9°C1.6%33.8hPa0V00:00:0000:00:0000:00:00
PU1XMG-162026-08-30 12:39:59-22.65501-42.847279km/h23261m7.1m/s-58.9°C1.6%34.0hPa0V00:00:0000:00:0000:00:00
PU1XMG-162026-08-30 12:39:54-22.65515-42.8473830°15km/h23230m7.0m/s-59.0°C1.6%34.2hPa0V00:00:0000:00:0000:00:00
PU1XMG-162026-08-30 12:39:49-22.65534-42.84735346°13km/h23193m7.7m/s-59.1°C1.6%34.3hPa0V00:00:0000:00:0000:00:00
PU1XMG-162026-08-30 12:39:44-22.65545-42.8474466°15km/h23162m6.8m/s-59.1°C1.6%34.5hPa0V00:00:0000:00:0000:00:00
PU1XMG-162026-08-30 12:39:38-22.65552-42.8475312°2km/h23133m6.6m/s-58.9°C1.6%34.7hPa0V00:00:0000:00:0000:00:00
PU1XMG-162026-08-30 12:39:33-22.65558-42.84747340°9km/h23097m7.3m/s-58.7°C1.6%34.9hPa0V00:00:0000:00:0000:00:00
PU1XMG-162026-08-30 12:39:28-22.65574-42.8474613km/h23068m6.2m/s-58.6°C1.6%35.0hPa0V00:00:0000:00:0000:00:00
PU1XMG-162026-08-30 12:39:22-22.65588-42.84745355°5km/h23032m6.6m/s-58.5°C1.5%35.2hPa0V00:00:0000:00:0000:00:00
PU1XMG-162026-08-30 12:39:15-22.65603-42.84741355°11km/h22998m6.4m/s-58.6°C1.5%35.4hPa0V00:00:0000:00:0000:00:00
PU1XMG-162026-08-30 12:39:10-22.65618-42.8474750°11km/h22964m4.8m/s-58.9°C1.6%35.6hPa0V00:00:0000:00:0000:00:00
PU1XMG-162026-08-30 12:37:11-22.65508-42.84982140°26km/h22275m7.4m/s-60.1°C1.6%39.8hPa0V00:00:0000:00:0000:00:00
PU1XMG-162026-08-30 12:37:00-22.65474-42.85009159°11km/h22208m4.7m/s-60.5°C1.7%40.2hPa0V00:00:0000:00:0000:00:00
PU1XMG-162026-08-30 12:36:54-22.65457-42.85015167°9km/h22170m8.2m/s-60.7°C1.7%40.5hPa0V00:00:0000:00:0000:00:00
PU1XMG-162026-08-30 12:36:48-22.65445-42.85020168°9km/h22128m6.0m/s-61.1°C1.7%40.8hPa0V00:00:0000:00:0000:00:00
PU1XMG-162026-08-30 12:36:42-22.65440-42.8503276°9km/h22085m7.0m/s-61.3°C1.8%41.0hPa0V00:00:0000:00:0000:00:00
PU1XMG-162026-08-30 12:36:36-22.65441-42.85047107°11km/h22051m8.0m/s-61.4°C1.9%41.3hPa0V00:00:0000:00:0000:00:00
PU1XMG-162026-08-30 12:36:30-22.65430-42.85058130°7km/h22011m6.0m/s-61.2°C1.8%41.5hPa0V00:00:0000:00:0000:00:00
PU1XMG-162026-08-30 12:36:25-22.65430-42.8506479°7km/h21978m5.2m/s-61.2°C1.8%41.8hPa0V00:00:0000:00:0000:00:00
PU1XMG-162026-08-30 12:36:19-22.65420-42.85070193°7km/h21940m5.7m/s-61.5°C1.8%42.0hPa0V00:00:0000:00:0000:00:00
PU1XMG-162026-08-30 12:36:12-22.65405-42.85058175°9km/h21888m6.8m/s-61.4°C1.9%42.4hPa0V00:00:0000:00:0000:00:00
PU1XMG-162026-08-30 12:36:05-22.65390-42.85059213°7km/h21849m7.3m/s-61.3°C1.8%42.6hPa0V00:00:0000:00:0000:00:00
PU1XMG-162026-08-30 12:35:59-22.65381-42.85052152°5km/h21811m5.8m/s-61.1°C1.8%42.9hPa0V00:00:0000:00:0000:00:00
PU1XMG-162026-08-30 12:35:54-22.65370-42.85064120°18km/h21781m7.4m/s-61.3°C1.8%43.1hPa0V00:00:0000:00:0000:00:00
PU1XMG-162026-08-30 12:35:49-22.65361-42.85084133°11km/h21748m7.3m/s-61.4°C1.9%43.3hPa0V00:00:0000:00:0000:00:00
PU1XMG-162026-08-30 12:35:42-22.65345-42.85089150°13km/h21704m4.5m/s-61.0°C1.8%43.7hPa0V00:00:0000:00:0000:00:00
PU1XMG-162026-08-30 12:35:36-22.65327-42.85101150°15km/h21667m7.2m/s-61.0°C1.8%43.9hPa0V00:00:0000:00:0000:00:00
PU1XMG-162026-08-30 12:35:31-22.65308-42.85111139°15km/h21637m4.8m/s-60.9°C1.8%44.1hPa0V00:00:0000:00:0000:00:00
PU1XMG-162026-08-30 12:35:26-22.65295-42.85127126°9km/h21601m6.4m/s-61.0°C1.8%44.4hPa0V00:00:0000:00:0000:00:00
PU1XMG-162026-08-30 12:35:20-22.65285-42.85132161°13km/h21570m6.3m/s-61.0°C1.8%44.6hPa0V00:00:0000:00:0000:00:00
PU1XMG-162026-08-30 12:35:15-22.65262-42.85144153°18km/h21535m6.2m/s-60.9°C1.8%44.9hPa0V00:00:0000:00:0000:00:00
PU1XMG-162026-08-30 12:35:10-22.65249-42.85154163°11km/h21504m4.4m/s-60.8°C1.8%45.1hPa0V00:00:0000:00:0000:00:00
PU1XMG-162026-08-30 12:35:03-22.65234-42.85163160°18km/h21471m5.1m/s-60.9°C1.9%45.3hPa0V00:00:0000:00:0000:00:00
PU1XMG-162026-08-30 12:34:57-22.65209-42.85180144°16km/h21437m6.0m/s-60.8°C1.8%45.6hPa0V00:00:0000:00:0000:00:00
PU1XMG-162026-08-30 12:34:52-22.65190-42.85193162°13km/h21403m5.9m/s-61.0°C1.8%45.8hPa0V00:00:0000:00:0000:00:00
PU1XMG-162026-08-30 12:34:46-22.65176-42.85199171°9km/h21370m6.8m/s-61.1°C1.8%46.1hPa0V00:00:0000:00:0000:00:00
PU1XMG-162026-08-30 12:34:40-22.65165-42.85200167°7km/h21343m6.6m/s-61.3°C1.8%46.3hPa0V00:00:0000:00:0000:00:00
PU1XMG-162026-08-30 12:34:34-22.65154-42.85205138°9km/h21309m5.2m/s-61.7°C1.9%46.6hPa0V00:00:0000:00:0000:00:00
PU1XMG-162026-08-30 12:34:25-22.65141-42.85222120°7km/h21259m6.1m/s-62.2°C1.9%46.9hPa0V00:00:0000:00:0000:00:00
PU1XMG-162026-08-30 12:34:18-22.65120-42.85218187°15km/h21224m3.6m/s-62.6°C1.9%47.2hPa0V00:00:0000:00:0000:00:00
PU1XMG-162026-08-30 12:34:13-22.65106-42.85223135°15km/h21198m3.5m/s-62.7°C2.0%47.4hPa0V00:00:0000:00:0000:00:00
PU1XMG-162026-08-30 12:34:07-22.65074-42.85227188°33km/h21168m4.8m/s-62.5°C2.0%47.6hPa0V00:00:0000:00:0000:00:00
PU1XMG-162026-08-30 12:33:46-22.64942-42.85190200°22km/h21061m6.3m/s-62.2°C1.9%48.5hPa0V00:00:0000:00:0000:00:00
PU1XMG-162026-08-30 12:33:42-22.64916-42.85178214°24km/h21035m5.7m/s-62.2°C2.0%48.7hPa0V00:00:0000:00:0000:00:00
PU1XMG-162026-08-30 12:33:36-22.64886-42.85154218°22km/h21000m6.8m/s-62.2°C2.0%49.0hPa0V00:00:0000:00:0000:00:00
PU1XMG-162026-08-30 12:33:30-22.64867-42.85137212°18km/h20972m5.2m/s-62.3°C2.0%49.2hPa0V00:00:0000:00:0000:00:00
PU1XMG-162026-08-30 12:33:25-22.64845-42.85120213°27km/h20943m4.5m/s-62.2°C1.9%49.4hPa0V00:00:0000:00:0000:00:00
PU1XMG-162026-08-30 12:33:19-22.64817-42.85084239°29km/h20909m5.7m/s-62.2°C1.9%49.7hPa0V00:00:0000:00:0000:00:00
PU1XMG-162026-08-30 12:33:14-22.64798-42.85049235°24km/h20878m6.4m/s-62.4°C2.0%49.9hPa0V00:00:0000:00:0000:00:00
PU1XMG-162026-08-30 12:32:49-22.64784-42.84921289°15km/h20738m7.0m/s-62.2°C2.0%51.1hPa0V00:00:0000:00:0000:00:00
PU1XMG-162026-08-30 12:32:42-22.64795-42.84899297°13km/h20697m6.1m/s-62.0°C2.1%51.4hPa0V00:00:0000:00:0000:00:00
PU1XMG-162026-08-30 12:32:37-22.64808-42.84884337°13km/h20660m5.5m/s-61.7°C1.9%51.7hPa0V00:00:0000:00:0000:00:00
PU1XMG-162026-08-30 12:32:32-22.64816-42.84878303°5km/h20632m6.3m/s-61.5°C1.9%52.0hPa0V00:00:0000:00:0000:00:00
PU1XMG-162026-08-30 12:32:25-22.64821-42.84859284°16km/h20595m7.1m/s-61.5°C1.9%52.3hPa0V00:00:0000:00:0000:00:00
PU1XMG-162026-08-30 12:32:20-22.64825-42.84833288°11km/h20558m6.2m/s-61.9°C2.0%52.6hPa0V00:00:0000:00:0000:00:00
PU1XMG-162026-08-30 12:32:14-22.64825-42.84823323°4km/h20528m6.6m/s-61.8°C2.0%52.9hPa0V00:00:0000:00:0000:00:00
PU1XMG-162026-08-30 12:32:10-22.64834-42.84819336°11km/h20498m7.3m/s-61.8°C2.0%53.1hPa0V00:00:0000:00:0000:00:00
PU1XMG-162026-08-30 12:32:03-22.64848-42.84801303°18km/h20462m5.1m/s-62.0°C2.0%53.4hPa0V00:00:0000:00:0000:00:00
PU1XMG-162026-08-30 12:31:59-22.64864-42.84778321°24km/h20429m5.1m/s-62.4°C2.0%53.7hPa0V00:00:0000:00:0000:00:00
PU1XMG-162026-08-30 12:31:52-22.64891-42.84757317°16km/h20392m6.6m/s-62.4°C2.0%54.1hPa0V00:00:0000:00:0000:00:00
PU1XMG-162026-08-30 12:31:47-22.64900-42.84745300°9km/h20361m7.6m/s-62.8°C2.0%54.3hPa0V00:00:0000:00:0000:00:00
PU1XMG-162026-08-30 12:31:41-22.64911-42.8474530°13km/h20322m5.3m/s-63.3°C2.2%54.7hPa0V00:00:0000:00:0000:00:00
PU1XMG-162026-08-30 12:31:36-22.64927-42.8475617°9km/h20290m5.6m/s-63.2°C2.2%54.9hPa0V00:00:0000:00:0000:00:00
PU1XMG-162026-08-30 12:31:30-22.64940-42.84756355°5km/h20253m4.9m/s-63.1°C2.1%55.3hPa0V00:00:0000:00:0000:00:00
PU1XMG-162026-08-30 12:31:25-22.64948-42.84760345°5km/h20217m7.0m/s-63.1°C2.1%55.6hPa0V00:00:0000:00:0000:00:00
PU1XMG-162026-08-30 12:31:20-22.64954-42.84751293°9km/h20187m5.7m/s-63.1°C2.1%55.9hPa0V00:00:0000:00:0000:00:00
PU1XMG-162026-08-30 12:31:13-22.64957-42.84744287°2km/h20149m6.1m/s-63.1°C2.2%56.2hPa0V00:00:0000:00:0000:00:00
PU1XMG-162026-08-30 12:31:07-22.64953-42.84723270°20km/h20114m5.5m/s-62.9°C2.2%56.5hPa0V00:00:0000:00:0000:00:00
PU1XMG-162026-08-30 12:31:01-22.64952-42.84695286°15km/h20078m6.2m/s-62.8°C2.1%56.9hPa0V00:00:0000:00:0000:00:00
PU1XMG-162026-08-30 12:30:56-22.64961-42.84672308°18km/h20042m6.6m/s-62.7°C2.1%57.2hPa0V00:00:0000:00:0000:00:00
PU1XMG-162026-08-30 12:30:45-22.64988-42.84635307°24km/h19985m6.5m/s-63.0°C2.2%57.8hPa0V00:00:0000:00:0000:00:00
PU1XMG-162026-08-30 12:30:39-22.65019-42.84606337°29km/h19948m4.6m/s-63.0°C2.1%58.1hPa0V00:00:0000:00:0000:00:00
PU1XMG-162026-08-30 12:30:34-22.65047-42.84596350°22km/h19918m5.8m/s-63.1°C2.2%58.4hPa0V00:00:0000:00:0000:00:00
PU1XMG-162026-08-30 12:30:28-22.65079-42.84587350°24km/h19882m4.0m/s-62.8°C2.2%58.7hPa0V00:00:0000:00:0000:00:00
PU1XMG-162026-08-30 12:30:23-22.65113-42.84579349°22km/h19848m5.6m/s-62.8°C2.3%59.1hPa0V00:00:0000:00:0000:00:00
PU1XMG-162026-08-30 12:30:17-22.65140-42.84572350°18km/h19813m7.9m/s-62.6°C2.2%59.4hPa0V00:00:0000:00:0000:00:00
PU1XMG-162026-08-30 12:30:03-22.65193-42.8458946°15km/h19731m6.5m/s-62.2°C2.1%60.2hPa0V00:00:0000:00:0000:00:00
PU1XMG-162026-08-30 12:29:58-22.65219-42.8460738°24km/h19694m6.1m/s-62.0°C2.1%60.5hPa0V00:00:0000:00:0000:00:00
PU1XMG-162026-08-30 12:27:53-22.65539-42.85539102°37km/h19020m5.8m/s-64.5°C2.7%67.7hPa0V00:00:0000:00:0000:00:00
PU1XMG-162026-08-30 12:27:38-22.65508-42.8566593°26km/h18959m6.9m/s-64.3°C2.9%68.7hPa0V00:00:0000:00:0000:00:00
PU1XMG-162026-08-30 12:27:33-22.65503-42.85710119°22km/h18938m6.7m/s-64.2°C2.9%69.0hPa0V00:00:0000:00:0000:00:00
PU1XMG-162026-08-30 12:27:18-22.65487-42.8578991°18km/h18809m6.2m/s-63.8°C2.9%69.9hPa0V00:00:0000:00:0000:00:00
PU1XMG-162026-08-30 12:27:11-22.65486-42.8582876°27km/h18770m4.1m/s-63.7°C2.8%70.4hPa0V00:00:0000:00:0000:00:00
PU1XMG-162026-08-30 12:27:05-22.65496-42.8587582°24km/h18733m6.9m/s-64.2°C2.9%70.8hPa0V00:00:0000:00:0000:00:00
PU1XMG-162026-08-30 12:26:57-22.65526-42.8592955°37km/h18687m6.3m/s-64.4°C3.0%71.4hPa0V00:00:0000:00:0000:00:00
PU1XMG-162026-08-30 12:26:50-22.65554-42.8597548°29km/h18654m4.8m/s-64.5°C3.2%71.7hPa0V00:00:0000:00:0000:00:00
PU1XMG-162026-08-30 12:26:45-22.65592-42.8601543°40km/h18623m4.2m/s-64.4°C3.2%72.1hPa0V00:00:0000:00:0000:00:00
PU1XMG-162026-08-30 12:26:38-22.65632-42.8605946°37km/h18591m7.4m/s-64.4°C3.2%72.5hPa0V00:00:0000:00:0000:00:00
PU1XMG-162026-08-30 12:26:33-22.65664-42.8609454°37km/h18561m6.5m/s-64.5°C3.3%72.9hPa0V00:00:0000:00:0000:00:00
PU1XMG-162026-08-30 12:26:28-22.65687-42.8613460°31km/h18535m6.0m/s-64.5°C3.3%73.2hPa0V00:00:0000:00:0000:00:00
PU1XMG-162026-08-30 12:26:23-22.65715-42.8618059°37km/h18500m4.6m/s-64.4°C3.4%73.6hPa0V00:00:0000:00:0000:00:00
PU1XMG-162026-08-30 12:26:16-22.65746-42.8623462°40km/h18469m5.0m/s-64.4°C3.5%74.0hPa0V00:00:0000:00:0000:00:00
PU1XMG-162026-08-30 12:26:10-22.65777-42.8628656°40km/h18433m4.7m/s-64.2°C3.5%74.4hPa0V00:00:0000:00:0000:00:00
PU1XMG-162026-08-30 12:26:06-22.65805-42.8634064°49km/h18405m3.5m/s-64.1°C3.6%74.8hPa0V00:00:0000:00:0000:00:00
PU1XMG-162026-08-30 12:26:00-22.65828-42.8639765°38km/h18375m5.3m/s-64.1°C3.7%75.1hPa0V00:00:0000:00:0000:00:00
PU1XMG-162026-08-30 12:25:54-22.65853-42.8644964°37km/h18340m5.2m/s-64.5°C3.9%75.6hPa0V00:00:0000:00:0000:00:00
PU1XMG-162026-08-30 12:25:49-22.65865-42.8650085°40km/h18310m7.3m/s-64.3°C4.0%75.9hPa0V00:00:0000:00:0000:00:00
PU1XMG-162026-08-30 12:25:44-22.65869-42.8655385°38km/h18283m5.6m/s-64.2°C4.0%76.3hPa0V00:00:0000:00:0000:00:00
PU1XMG-162026-08-30 12:25:39-22.65873-42.8660384°35km/h18255m4.0m/s-64.2°C4.1%76.6hPa0V00:00:0000:00:0000:00:00
PU1XMG-162026-08-30 12:25:35-22.65875-42.8665294°40km/h18227m7.1m/s-64.2°C4.2%77.0hPa0V00:00:0000:00:0000:00:00
PU1XMG-162026-08-30 12:25:28-22.65870-42.8672595°44km/h18192m4.8m/s-64.3°C4.5%77.4hPa0V00:00:0000:00:0000:00:00
PU1XMG-162026-08-30 12:25:23-22.65868-42.8678096°35km/h18163m4.8m/s-64.6°C4.6%77.7hPa0V00:00:0000:00:0000:00:00
PU1XMG-162026-08-30 12:25:18-22.65862-42.8683299°46km/h18135m6.6m/s-64.6°C4.9%78.1hPa0V00:00:0000:00:0000:00:00
PU1XMG-162026-08-30 12:25:13-22.65849-42.86917101°51km/h18102m5.9m/s-64.4°C5.0%78.5hPa0V00:00:0000:00:0000:00:00
PU1XMG-162026-08-30 12:25:07-22.65832-42.86989103°38km/h18068m4.2m/s-65.0°C5.1%79.0hPa0V00:00:0000:00:0000:00:00
PU1XMG-162026-08-30 12:25:01-22.65826-42.8704694°46km/h18040m6.1m/s-65.2°C5.4%79.3hPa0V00:00:0000:00:0000:00:00
PU1XMG-162026-08-30 12:24:56-22.65817-42.87109104°47km/h18012m6.9m/s-65.7°C5.7%79.7hPa0V00:00:0000:00:0000:00:00
PU1XMG-162026-08-30 12:24:51-22.65796-42.87176116°38km/h17977m6.2m/s-66.4°C6.3%80.1hPa0V00:00:0000:00:0000:00:00
PU1XMG-162026-08-30 12:24:46-22.65778-42.87221107°40km/h17952m4.1m/s-66.8°C7.0%80.5hPa0V00:00:0000:00:0000:00:00
PU1XMG-162026-08-30 12:24:39-22.65769-42.8727896°31km/h17919m6.5m/s-66.8°C6.9%80.9hPa0V00:00:0000:00:0000:00:00
PU1XMG-162026-08-30 12:24:35-22.65767-42.8732288°33km/h17892m5.0m/s-66.9°C7.3%81.3hPa0V00:00:0000:00:0000:00:00
PU1XMG-162026-08-30 12:24:29-22.65768-42.8737187°38km/h17866m4.1m/s-66.7°C7.5%81.7hPa0V00:00:0000:00:0000:00:00
PU1XMG-162026-08-30 12:24:24-22.65765-42.8744091°44km/h17837m3.9m/s-67.6°C7.8%82.0hPa0V00:00:0000:00:0000:00:00
PU1XMG-162026-08-30 12:24:17-22.65768-42.8751183°47km/h17806m4.2m/s-67.6°C8.4%82.4hPa0V00:00:0000:00:0000:00:00
PU1XMG-162026-08-30 12:24:12-22.65775-42.8758184°53km/h17779m4.4m/s-67.9°C8.7%82.8hPa0V00:00:0000:00:0000:00:00
PU1XMG-162026-08-30 12:24:06-22.65786-42.8766882°58km/h17746m5.3m/s-68.5°C9.2%83.3hPa0V00:00:0000:00:0000:00:00
PU1XMG-162026-08-30 12:24:00-22.65803-42.8777283°66km/h17714m6.1m/s-68.4°C9.4%83.7hPa0V00:00:0000:00:0000:00:00
PU1XMG-162026-08-30 12:23:55-22.65815-42.8788183°68km/h17682m4.4m/s-68.6°C9.9%84.2hPa0V00:00:0000:00:0000:00:00
PU1XMG-162026-08-30 12:23:43-22.65824-42.8805896°60km/h17623m6.0m/s-70.2°C11.3%85.0hPa0V00:00:0000:00:0000:00:00
PU1XMG-162026-08-30 12:23:33-22.65791-42.88232112°60km/h17568m6.0m/s-70.7°C12.0%85.8hPa0V00:00:0000:00:0000:00:00
PU1XMG-162026-08-30 12:23:28-22.65761-42.88314116°73km/h17541m5.3m/s-71.2°C12.5%86.2hPa0V00:00:0000:00:0000:00:00
PU1XMG-162026-08-30 12:23:21-22.65705-42.88440117°62km/h17505m5.5m/s-71.1°C12.4%86.8hPa0V00:00:0000:00:0000:00:00
PU1XMG-162026-08-30 12:23:15-22.65662-42.88530119°66km/h17472m5.7m/s-71.2°C12.6%87.2hPa0V00:00:0000:00:0000:00:00
PU1XMG-162026-08-30 12:23:10-22.65620-42.88613120°71km/h17446m6.5m/s-72.2°C13.1%87.6hPa0V00:00:0000:00:0000:00:00
PU1XMG-162026-08-30 12:23:04-22.65575-42.88706116°60km/h17412m4.0m/s-73.1°C14.8%88.2hPa0V00:00:0000:00:0000:00:00
PU1XMG-162026-08-30 12:22:58-22.65536-42.88795122°64km/h17381m4.1m/s-73.1°C15.5%88.7hPa0V00:00:0000:00:0000:00:00
PU1XMG-162026-08-30 12:22:53-22.65484-42.88883125°58km/h17348m6.7m/s-73.2°C15.1%89.1hPa0V00:00:0000:00:0000:00:00
PU1XMG-162026-08-30 12:22:47-22.65441-42.88962120°58km/h17313m5.1m/s-73.4°C15.5%89.6hPa0V00:00:0000:00:0000:00:00
PU1XMG-162026-08-30 12:22:41-22.65393-42.89030133°58km/h17286m7.4m/s-73.5°C16.1%90.0hPa0V00:00:0000:00:0000:00:00
PU1XMG-162026-08-30 12:22:35-22.65345-42.89089131°47km/h17244m6.5m/s-74.2°C16.6%90.6hPa0V00:00:0000:00:0000:00:00
PU1XMG-162026-08-30 12:22:30-22.65299-42.89144138°51km/h17214m6.3m/s-74.3°C17.6%91.1hPa0V00:00:0000:00:0000:00:00
PU1XMG-162026-08-30 12:22:24-22.65231-42.89175172°44km/h17173m5.7m/s-74.0°C17.0%91.7hPa0V00:00:0000:00:0000:00:00
PU1XMG-162026-08-30 12:22:19-22.65180-42.89196145°42km/h17143m6.5m/s-73.8°C16.5%92.1hPa0V00:00:0000:00:0000:00:00
PU1XMG-162026-08-30 12:22:11-22.65097-42.89234184°53km/h17089m2.2m/s-73.7°C16.8%92.8hPa0V00:00:0000:00:0000:00:00
PU1XMG-162026-08-30 12:21:46-22.64959-42.89355125°26km/h16906m6.5m/s-74.8°C18.7%96.1hPa0V00:00:0000:00:0000:00:00
PU1XMG-162026-08-30 12:21:34-22.64917-42.89423125°27km/h16835m3.8m/s-74.4°C18.2%97.3hPa0V00:00:0000:00:0000:00:00
PU1XMG-162026-08-30 12:21:28-22.64892-42.89463119°33km/h16803m5.1m/s-74.1°C17.9%97.8hPa0V00:00:0000:00:0000:00:00
PU1XMG-162026-08-30 12:21:23-22.64873-42.89498129°31km/h16777m4.2m/s-73.9°C17.3%98.3hPa0V00:00:0000:00:0000:00:00
PU1XMG-162026-08-30 12:21:17-22.64841-42.89534139°31km/h16743m6.6m/s-73.9°C17.3%98.9hPa0V00:00:0000:00:0000:00:00
PU1XMG-162026-08-30 12:21:12-22.64813-42.89565131°31km/h16716m6.4m/s-73.9°C17.3%99.3hPa0V00:00:0000:00:0000:00:00
PU1XMG-162026-08-30 12:21:06-22.64783-42.89600136°26km/h16682m4.1m/s-73.8°C17.3%99.9hPa0V00:00:0000:00:0000:00:00
PU1XMG-162026-08-30 12:21:00-22.64752-42.89625151°24km/h16649m5.4m/s-74.0°C17.3%100.4hPa0V00:00:0000:00:0000:00:00
PU1XMG-162026-08-30 12:20:54-22.64725-42.89654120°29km/h16612m4.1m/s-73.8°C17.4%101.1hPa0V00:00:0000:00:0000:00:00
PU1XMG-162026-08-30 12:20:26-22.64627-42.89865113°46km/h16465m4.6m/s-74.2°C17.5%103.6hPa0V00:00:0000:00:0000:00:00
PU1XMG-162026-08-30 12:20:20-22.64605-42.89930113°38km/h16432m4.5m/s-74.0°C17.7%104.2hPa0V00:00:0000:00:0000:00:00
PU1XMG-162026-08-30 12:20:14-22.64584-42.89977125°46km/h16406m4.7m/s-73.8°C17.4%104.7hPa0V00:00:0000:00:0000:00:00
PU1XMG-162026-08-30 12:20:09-22.64552-42.90031119°46km/h16380m3.6m/s-73.6°C16.7%105.1hPa0V00:00:0000:00:0000:00:00
PU1XMG-162026-08-30 12:20:04-22.64534-42.90099105°49km/h16350m4.7m/s-73.3°C16.8%105.7hPa0V00:00:0000:00:0000:00:00
PU1XMG-162026-08-30 12:19:58-22.64514-42.90162119°47km/h16324m3.1m/s-73.0°C17.0%106.2hPa0V00:00:0000:00:0000:00:00
PU1XMG-162026-08-30 12:19:47-22.64466-42.90297112°49km/h16265m5.3m/s-72.5°C16.6%107.2hPa0V00:00:0000:00:0000:00:00
PU1XMG-162026-08-30 12:19:42-22.64442-42.90356112°47km/h16237m3.9m/s-72.3°C16.3%107.8hPa0V00:00:0000:00:0000:00:00
PU1XMG-162026-08-30 12:19:37-22.64423-42.90419109°49km/h16210m5.9m/s-72.0°C16.5%108.2hPa0V00:00:0000:00:0000:00:00
PU1XMG-162026-08-30 12:19:31-22.64389-42.90491124°47km/h16178m4.4m/s-71.8°C16.8%108.8hPa0V00:00:0000:00:0000:00:00
PU1XMG-162026-08-30 12:15:52-22.64657-42.9262866°55km/h14869m4.6m/s-65.2°C9.5%135.4hPa0V00:00:0000:00:0000:00:00
PU1XMG-162026-08-30 12:15:47-22.64698-42.9270760°57km/h14836m7.4m/s-65.1°C9.6%136.1hPa0V00:00:0000:00:0000:00:00
PU1XMG-162026-08-30 12:15:41-22.64730-42.9277767°55km/h14809m5.5m/s-64.9°C9.7%136.8hPa0V00:00:0000:00:0000:00:00
PU1XMG-162026-08-30 12:15:37-22.64765-42.9285966°57km/h14776m6.8m/s-65.0°C9.7%137.5hPa0V00:00:0000:00:0000:00:00
PU1XMG-162026-08-30 12:15:27-22.64819-42.9297365°58km/h14733m4.4m/s-64.9°C9.4%138.5hPa0V00:00:0000:00:0000:00:00
PU1XMG-162026-08-30 12:15:22-22.64853-42.9306369°57km/h14700m4.7m/s-64.7°C9.4%139.2hPa0V00:00:0000:00:0000:00:00
PU1XMG-162026-08-30 12:14:51-22.65050-42.9347670°64km/h14529m4.9m/s-64.0°C9.6%143.2hPa0V00:00:0000:00:0000:00:00
PU1XMG-162026-08-30 12:14:45-22.65099-42.9358262°53km/h14491m4.0m/s-63.8°C9.3%144.0hPa0V00:00:0000:00:0000:00:00
PU1XMG-162026-08-30 12:14:40-22.65130-42.9364967°57km/h14464m7.0m/s-63.6°C9.6%144.7hPa0V00:00:0000:00:0000:00:00
PU1XMG-162026-08-30 12:14:34-22.65166-42.9372361°64km/h14436m4.4m/s-63.3°C9.5%145.3hPa0V00:00:0000:00:0000:00:00
PU1XMG-162026-08-30 12:14:29-22.65215-42.9380758°58km/h14402m7.4m/s-63.1°C9.2%146.2hPa0V00:00:0000:00:0000:00:00
PU1XMG-162026-08-30 12:14:23-22.65260-42.9388759°60km/h14369m5.8m/s-63.2°C9.4%146.9hPa0V00:00:0000:00:0000:00:00
PU1XMG-162026-08-30 12:14:17-22.65310-42.9397661°66km/h14336m4.1m/s-63.0°C9.9%147.7hPa0V00:00:0000:00:0000:00:00
PU1XMG-162026-08-30 12:13:27-22.65831-42.9485559°88km/h14067m5.7m/s-61.7°C9.4%154.3hPa0V00:00:0000:00:0000:00:00
PU1XMG-162026-08-30 12:13:19-22.65929-42.9501456°95km/h14025m5.9m/s-61.4°C9.3%155.3hPa0V00:00:0000:00:0000:00:00
PU1XMG-162026-08-30 12:13:14-22.66010-42.9514459°91km/h13995m5.1m/s-61.4°C9.4%156.2hPa0V00:00:0000:00:0000:00:00
PU1XMG-162026-08-30 12:13:08-22.66080-42.9527059°91km/h13961m4.6m/s-61.2°C9.1%157.0hPa0V00:00:0000:00:0000:00:00
PU1XMG-162026-08-30 12:13:02-22.66142-42.9538060°95km/h13934m6.2m/s-61.2°C9.3%157.6hPa0V00:00:0000:00:0000:00:00
PU1XMG-162026-08-30 12:12:50-22.66292-42.9564959°97km/h13870m4.2m/s-60.9°C9.5%159.3hPa0V00:00:0000:00:0000:00:00
PU1XMG-162026-08-30 12:12:44-22.66388-42.9581659°102km/h13833m6.3m/s-60.7°C9.1%160.1hPa0V00:00:0000:00:0000:00:00
PU1XMG-162026-08-30 12:12:36-22.66471-42.9597563°95km/h13798m6.3m/s-60.4°C8.8%161.1hPa0V00:00:0000:00:0000:00:00
PU1XMG-162026-08-30 12:12:30-22.66551-42.9611859°102km/h13766m5.6m/s-60.2°C8.7%161.9hPa0V00:00:0000:00:0000:00:00
PU1XMG-162026-08-30 12:12:25-22.66611-42.9623163°91km/h13740m6.0m/s-60.0°C8.6%162.6hPa0V00:00:0000:00:0000:00:00
PU1XMG-162026-08-30 12:12:19-22.66691-42.9639061°99km/h13707m3.0m/s-59.6°C8.6%163.5hPa0V00:00:0000:00:0000:00:00
PU1XMG-162026-08-30 12:12:06-22.66837-42.9666763°100km/h13646m4.5m/s-59.2°C8.0%165.1hPa0V00:00:0000:00:0000:00:00
PU1XMG-162026-08-30 12:11:48-22.67036-42.9708063°95km/h13553m4.2m/s-58.5°C7.8%167.6hPa0V00:00:0000:00:0000:00:00
PU1XMG-162026-08-30 12:11:43-22.67090-42.9719263°91km/h13527m4.4m/s-58.4°C7.6%168.3hPa0V00:00:0000:00:0000:00:00
PU1XMG-162026-08-30 12:11:38-22.67141-42.9730567°93km/h13501m4.6m/s-58.1°C7.6%168.9hPa0V00:00:0000:00:0000:00:00
PU1XMG-162026-08-30 12:11:31-22.67214-42.9746062°88km/h13467m3.9m/s-57.9°C7.7%169.9hPa0V00:00:0000:00:0000:00:00
PU1XMG-162026-08-30 12:11:25-22.67274-42.9759166°93km/h13438m6.5m/s-57.7°C7.7%170.6hPa0V00:00:0000:00:0000:00:00
PU1XMG-162026-08-30 12:11:17-22.67360-42.9777062°91km/h13397m4.7m/s-57.5°C7.4%171.7hPa0V00:00:0000:00:0000:00:00
PU1XMG-162026-08-30 12:11:07-22.67462-42.9798266°86km/h13347m4.7m/s-57.1°C7.6%173.1hPa0V00:00:0000:00:0000:00:00
PU1XMG-162026-08-30 12:10:57-22.67580-42.9822663°95km/h13295m4.0m/s-57.0°C7.5%174.5hPa0V00:00:0000:00:0000:00:00
PU1XMG-162026-08-30 12:10:09-22.68053-42.9925766°91km/h13070m5.9m/s-55.5°C6.9%180.8hPa0V00:00:0000:00:0000:00:00
PU1XMG-162026-08-30 12:09:57-22.68176-42.9953864°89km/h13007m6.2m/s-55.2°C7.0%182.5hPa0V00:00:0000:00:0000:00:00
PU1XMG-162026-08-30 12:09:51-22.68222-42.9964567°82km/h12983m3.2m/s-55.0°C7.0%183.2hPa0V00:00:0000:00:0000:00:00
PU1XMG-162026-08-30 12:09:44-22.68282-42.9979064°86km/h12949m5.5m/s-54.9°C7.1%184.2hPa0V00:00:0000:00:0000:00:00
PU1XMG-162026-08-30 12:09:36-22.68356-42.9995667°84km/h12912m3.6m/s-54.9°C7.8%185.3hPa0V00:00:0000:00:0000:00:00
PU1XMG-162026-08-30 12:09:29-22.68429-43.0011665°80km/h12871m5.9m/s-54.7°C7.9%186.5hPa0V00:00:0000:00:0000:00:00
PU1XMG-162026-08-30 12:09:22-22.68485-43.0023261°82km/h12842m5.7m/s-54.7°C8.1%187.3hPa0V00:00:0000:00:0000:00:00
PU1XMG-162026-08-30 12:09:17-22.68541-43.0033158°84km/h12818m5.3m/s-54.5°C8.2%188.1hPa0V00:00:0000:00:0000:00:00
PU1XMG-162026-08-30 12:09:11-22.68603-43.0044262°73km/h12787m4.2m/s-54.3°C8.1%189.0hPa0V00:00:0000:00:0000:00:00
PU1XMG-162026-08-30 12:09:06-22.68664-43.0054958°80km/h12757m6.7m/s-54.1°C8.1%189.8hPa0V00:00:0000:00:0000:00:00
PU1XMG-162026-08-30 12:09:00-22.68719-43.0064258°78km/h12733m3.7m/s-53.9°C8.1%190.6hPa0V00:00:0000:00:0000:00:00
PU1XMG-162026-08-30 12:08:54-22.68782-43.0075059°78km/h12703m3.9m/s-53.9°C8.1%191.5hPa0V00:00:0000:00:0000:00:00
PU1XMG-162026-08-30 12:08:49-22.68835-43.0083859°75km/h12680m4.1m/s-53.8°C8.1%192.2hPa0V00:00:0000:00:0000:00:00
PU1XMG-162026-08-30 12:08:43-22.68899-43.0094157°80km/h12650m4.0m/s-53.7°C8.2%193.0hPa0V00:00:0000:00:0000:00:00
PU1XMG-162026-08-30 12:08:38-22.68970-43.0105155°78km/h12621m5.3m/s-53.4°C8.5%193.9hPa0V00:00:0000:00:0000:00:00
PU1XMG-162026-08-30 12:08:32-22.69030-43.0113857°80km/h12596m4.3m/s-53.4°C8.5%194.6hPa0V00:00:0000:00:0000:00:00
PU1XMG-162026-08-30 12:08:27-22.69089-43.0122954°82km/h12572m5.9m/s-53.2°C8.5%195.4hPa0V00:00:0000:00:0000:00:00
PU1XMG-162026-08-30 12:08:21-22.69162-43.0132753°77km/h12543m6.3m/s-53.0°C8.4%196.3hPa0V00:00:0000:00:0000:00:00
PU1XMG-162026-08-30 12:08:16-22.69224-43.0141656°84km/h12517m4.1m/s-52.8°C8.4%197.1hPa0V00:00:0000:00:0000:00:00
PU1XMG-162026-08-30 12:08:10-22.69301-43.0152552°82km/h12487m5.3m/s-52.7°C8.5%198.0hPa0V00:00:0000:00:0000:00:00
PU1XMG-162026-08-30 12:08:05-22.69364-43.0161153°82km/h12462m4.1m/s-52.6°C8.5%198.7hPa0V00:00:0000:00:0000:00:00
PU1XMG-162026-08-30 12:07:59-22.69441-43.0171751°82km/h12430m5.5m/s-52.4°C8.8%199.7hPa0V00:00:0000:00:0000:00:00
PU1XMG-162026-08-30 12:07:53-22.69522-43.0182151°82km/h12400m3.9m/s-52.2°C9.1%200.6hPa0V00:00:0000:00:0000:00:00
PU1XMG-162026-08-30 12:07:47-22.69600-43.0191849°75km/h12371m4.1m/s-52.1°C9.3%201.5hPa0V00:00:0000:00:0000:00:00
PU1XMG-162026-08-30 12:07:41-22.69683-43.0201448°86km/h12341m6.2m/s-51.8°C9.7%202.5hPa0V00:00:0000:00:0000:00:00
PU1XMG-162026-08-30 12:07:36-22.69769-43.0211748°82km/h12310m6.5m/s-51.7°C10.4%203.5hPa0V00:00:0000:00:0000:00:00
PU1XMG-162026-08-30 12:07:29-22.69856-43.0221346°82km/h12280m5.3m/s-51.4°C12.2%204.4hPa0V00:00:0000:00:0000:00:00
PU1XMG-162026-08-30 12:07:21-22.69977-43.0234146°86km/h12240m4.7m/s-51.5°C14.7%205.7hPa0V00:00:0000:00:0000:00:00
PU1XMG-162026-08-30 12:07:15-22.70073-43.0244447°88km/h12210m4.4m/s-51.5°C12.2%206.7hPa0V00:00:0000:00:0000:00:00
PU1XMG-162026-08-30 12:07:09-22.70163-43.0254747°84km/h12179m3.9m/s-51.5°C10.3%207.6hPa0V00:00:0000:00:0000:00:00
PU1XMG-162026-08-30 12:07:04-22.70240-43.0262945°88km/h12155m6.9m/s-51.4°C10.2%208.4hPa0V00:00:0000:00:0000:00:00
PU1XMG-162026-08-30 12:06:59-22.70318-43.0271347°82km/h12129m5.2m/s-51.2°C11.1%209.2hPa0V00:00:0000:00:0000:00:00
PU1XMG-162026-08-30 12:06:53-22.70397-43.0281051°78km/h12097m5.4m/s-51.1°C12.3%210.2hPa0V00:00:0000:00:0000:00:00
PU1XMG-162026-08-30 12:06:48-22.70463-43.0289050°78km/h12070m4.2m/s-51.0°C12.7%211.1hPa0V00:00:0000:00:0000:00:00
PU1XMG-162026-08-30 12:06:43-22.70539-43.0298650°78km/h12039m5.0m/s-50.7°C14.4%212.1hPa0V00:00:0000:00:0000:00:00
PU1XMG-162026-08-30 12:06:31-22.70682-43.0319156°82km/h11977m7.0m/s-50.3°C16.8%214.1hPa0V00:00:0000:00:0000:00:00
PU1XMG-162026-08-30 12:06:25-22.70741-43.0328656°82km/h11952m4.6m/s-50.3°C21.0%215.0hPa0V00:00:0000:00:0000:00:00
PU1XMG-162026-08-30 12:06:20-22.70795-43.0337557°78km/h11928m4.3m/s-50.1°C18.4%215.8hPa0V00:00:0000:00:0000:00:00
PU1XMG-162026-08-30 12:06:14-22.70868-43.0349257°89km/h11895m4.6m/s-49.8°C16.4%216.8hPa0V00:00:0000:00:0000:00:00
PU1XMG-162026-08-30 12:06:10-22.70931-43.0358756°80km/h11868m6.7m/s-49.7°C21.1%217.7hPa0V00:00:0000:00:0000:00:00
PU1XMG-162026-08-30 12:06:03-22.70999-43.0369958°84km/h11840m3.6m/s-49.9°C36.1%218.6hPa0V00:00:0000:00:0000:00:00
PU1XMG-162026-08-30 12:05:57-22.71073-43.0381857°89km/h11810m3.7m/s-51.1°C42.0%219.7hPa0V00:00:0000:00:0000:00:00
PU1XMG-162026-08-30 12:05:48-22.71199-43.0401855°86km/h11759m5.8m/s-51.3°C35.9%221.3hPa0V00:00:0000:00:0000:00:00
PU1XMG-162026-08-30 12:05:19-22.71479-43.0450162°68km/h11621m3.4m/s-51.0°C42.9%226.1hPa0V00:00:0000:00:0000:00:00
PU1XMG-162026-08-30 12:05:13-22.71534-43.0459559°66km/h11588m6.6m/s-50.7°C42.4%227.2hPa0V00:00:0000:00:0000:00:00
PU1XMG-162026-08-30 12:05:08-22.71573-43.0467162°62km/h11564m6.3m/s-50.4°C40.4%228.1hPa0V00:00:0000:00:0000:00:00
PU1XMG-162026-08-30 12:05:03-22.71627-43.0476758°71km/h11532m3.4m/s-50.1°C39.3%229.2hPa0V00:00:0000:00:0000:00:00
PU1XMG-162026-08-30 12:04:57-22.71672-43.0485163°69km/h11507m5.6m/s-49.9°C38.4%230.1hPa0V00:00:0000:00:0000:00:00
PU1XMG-162026-08-30 12:04:51-22.71719-43.0494559°66km/h11475m4.4m/s-49.6°C37.3%231.2hPa0V00:00:0000:00:0000:00:00
PU1XMG-162026-08-30 12:04:45-22.71773-43.0504265°69km/h11446m5.6m/s-49.3°C36.9%232.2hPa0V00:00:0000:00:0000:00:00
PU1XMG-162026-08-30 12:04:40-22.71812-43.0512363°62km/h11420m5.0m/s-49.0°C35.3%233.0hPa0V00:00:0000:00:0000:00:00
PU1XMG-162026-08-30 12:04:34-22.71864-43.0521962°71km/h11392m4.0m/s-48.8°C34.4%234.2hPa0V00:00:0000:00:0000:00:00
PU1XMG-162026-08-30 12:04:30-22.71901-43.0530467°68km/h11366m5.2m/s-48.5°C33.8%235.1hPa0V00:00:0000:00:0000:00:00
PU1XMG-162026-08-30 12:04:23-22.71945-43.0540062°62km/h11338m2.1m/s-48.2°C33.6%236.1hPa0V00:00:0000:00:0000:00:00
PU1XMG-162026-08-30 12:04:19-22.71988-43.0548162°73km/h11315m3.7m/s-48.0°C31.9%236.9hPa0V00:00:0000:00:0000:00:00
PU1XMG-162026-08-30 12:04:12-22.72039-43.0558461°62km/h11289m4.3m/s-47.8°C31.1%237.9hPa0V00:00:0000:00:0000:00:00
PU1XMG-162026-08-30 12:04:07-22.72080-43.0565860°69km/h11267m4.9m/s-47.5°C30.3%238.7hPa0V00:00:0000:00:0000:00:00
PU1XMG-162026-08-30 12:04:01-22.72130-43.0575965°66km/h11238m4.8m/s-47.3°C30.4%239.7hPa0V00:00:0000:00:0000:00:00
PU1XMG-162026-08-30 12:03:56-22.72176-43.0585163°66km/h11207m6.3m/s-47.0°C29.1%240.7hPa0V00:00:0000:00:0000:00:00
PU1XMG-162026-08-30 12:03:50-22.72219-43.0593662°68km/h11182m5.7m/s-46.7°C28.5%241.7hPa0V00:00:0000:00:0000:00:00
PU1XMG-162026-08-30 12:03:43-22.72273-43.0604662°71km/h11150m3.8m/s-46.4°C27.5%242.9hPa0V00:00:0000:00:0000:00:00
PU1XMG-162026-08-30 12:03:37-22.72329-43.0614959°75km/h11117m5.8m/s-46.1°C26.8%244.1hPa0V00:00:0000:00:0000:00:00
PU1XMG-162026-08-30 12:03:30-22.72391-43.0626163°62km/h11080m5.4m/s-45.7°C25.9%245.4hPa0V00:00:0000:00:0000:00:00
PU1XMG-162026-08-30 12:03:26-22.72430-43.0633361°64km/h11055m5.1m/s-45.5°C25.5%246.4hPa0V00:00:0000:00:0000:00:00
PU1XMG-162026-08-30 12:03:20-22.72481-43.0642864°71km/h11023m6.8m/s-45.2°C24.9%247.6hPa0V00:00:0000:00:0000:00:00
PU1XMG-162026-08-30 12:03:14-22.72523-43.0650460°58km/h10995m7.6m/s-44.9°C23.9%248.6hPa0V00:00:0000:00:0000:00:00
PU1XMG-162026-08-30 12:03:08-22.72569-43.0659766°69km/h10965m6.6m/s-44.6°C23.0%249.8hPa0V00:00:0000:00:0000:00:00
PU1XMG-162026-08-30 12:03:03-22.72610-43.0668258°69km/h10941m4.1m/s-44.3°C22.6%250.6hPa0V00:00:0000:00:0000:00:00
PU1XMG-162026-08-30 12:02:57-22.72660-43.0677367°66km/h10912m4.6m/s-44.1°C22.1%251.7hPa0V00:00:0000:00:0000:00:00
PU1XMG-162026-08-30 12:02:46-22.72749-43.0694564°60km/h10850m6.6m/s-43.5°C21.1%253.8hPa0V00:00:0000:00:0000:00:00
PU1XMG-162026-08-30 12:02:40-22.72797-43.0703461°69km/h10816m6.8m/s-43.2°C20.0%255.3hPa0V00:00:0000:00:0000:00:00
PU1XMG-162026-08-30 12:02:34-22.72845-43.0712968°62km/h10782m6.1m/s-42.8°C19.7%256.5hPa0V00:00:0000:00:0000:00:00
PU1XMG-162026-08-30 12:02:29-22.72888-43.0721763°60km/h10751m4.1m/s-42.5°C19.4%257.8hPa0V00:00:0000:00:0000:00:00
PU1XMG-162026-08-30 12:02:23-22.72924-43.0729567°66km/h10727m4.9m/s-42.3°C18.8%258.7hPa0V00:00:0000:00:0000:00:00
PU1XMG-162026-08-30 12:02:17-22.72969-43.0739463°66km/h10696m4.2m/s-42.0°C18.5%259.9hPa0V00:00:0000:00:0000:00:00
PU1XMG-162026-08-30 12:02:11-22.73015-43.0748360°60km/h10665m6.7m/s-41.7°C18.0%261.1hPa0V00:00:0000:00:0000:00:00
PU1XMG-162026-08-30 12:02:05-22.73062-43.0757463°66km/h10636m6.0m/s-41.4°C17.5%262.1hPa0V00:00:0000:00:0000:00:00
PU1XMG-162026-08-30 12:02:00-22.73104-43.0765162°66km/h10610m4.0m/s-41.1°C17.2%263.2hPa0V00:00:0000:00:0000:00:00
PU1XMG-162026-08-30 12:01:55-22.73140-43.0772764°64km/h10585m5.5m/s-40.9°C16.6%264.1hPa0V00:00:0000:00:0000:00:00
PU1XMG-162026-08-30 12:01:47-22.73206-43.0785063°64km/h10545m5.2m/s-40.6°C16.4%265.6hPa0V00:00:0000:00:0000:00:00
PU1XMG-162026-08-30 12:01:42-22.73248-43.0794665°64km/h10517m6.5m/s-40.3°C15.8%266.8hPa0V00:00:0000:00:0000:00:00
PU1XMG-162026-08-30 12:01:35-22.73301-43.0803256°64km/h10485m4.3m/s-40.0°C15.3%268.1hPa0V00:00:0000:00:0000:00:00
PU1XMG-162026-08-30 12:01:29-22.73349-43.0812965°68km/h10454m6.3m/s-39.7°C15.1%269.2hPa0V00:00:0000:00:0000:00:00
PU1XMG-162026-08-30 12:01:25-22.73386-43.0820760°64km/h10429m4.7m/s-39.4°C14.7%270.3hPa0V00:00:0000:00:0000:00:00
PU1XMG-162026-08-30 12:01:19-22.73428-43.0828361°64km/h10402m5.9m/s-39.2°C14.4%271.2hPa0V00:00:0000:00:0000:00:00
PU1XMG-162026-08-30 12:01:14-22.73467-43.0836164°66km/h10375m6.2m/s-38.9°C14.0%272.3hPa0V00:00:0000:00:0000:00:00
PU1XMG-162026-08-30 12:01:08-22.73519-43.0845559°66km/h10345m6.2m/s-38.6°C13.8%273.5hPa0V00:00:0000:00:0000:00:00
PU1XMG-162026-08-30 12:01:02-22.73564-43.0854763°64km/h10316m7.3m/s-38.3°C13.3%274.6hPa0V00:00:0000:00:0000:00:00
PU1XMG-162026-08-30 12:00:57-22.73619-43.0863958°68km/h10287m4.7m/s-38.0°C13.1%275.9hPa0V00:00:0000:00:0000:00:00
PU1XMG-162026-08-30 12:00:50-22.73666-43.0873266°62km/h10258m4.1m/s-37.7°C12.8%277.1hPa0V00:00:0000:00:0000:00:00
PU1XMG-162026-08-30 12:00:45-22.73704-43.0880658°64km/h10232m6.3m/s-37.5°C12.6%278.1hPa0V00:00:0000:00:0000:00:00
PU1XMG-162026-08-30 12:00:40-22.73758-43.0889862°62km/h10203m3.5m/s-37.2°C12.4%279.2hPa0V00:00:0000:00:0000:00:00
PU1XMG-162026-08-30 12:00:35-22.73792-43.0897060°60km/h10179m4.8m/s-37.0°C12.1%280.2hPa0V00:00:0000:00:0000:00:00
PU1XMG-162026-08-30 12:00:29-22.73837-43.0904759°69km/h10154m5.8m/s-36.7°C11.9%281.4hPa0V00:00:0000:00:0000:00:00
PU1XMG-162026-08-30 12:00:20-22.73909-43.0918759°68km/h10110m7.0m/s-36.3°C11.6%283.0hPa0V00:00:0000:00:0000:00:00
PU1XMG-162026-08-30 12:00:17-22.73953-43.0926360°64km/h10087m5.2m/s-36.1°C11.6%284.1hPa0V00:00:0000:00:0000:00:00
PU1XMG-162026-08-30 12:00:06-22.74027-43.0939759°68km/h10043m4.5m/s-35.8°C11.4%285.8hPa0V00:00:0000:00:0000:00:00
PU1XMG-162026-08-30 12:00:00-22.74073-43.0949065°60km/h10014m4.5m/s-35.5°C11.2%287.0hPa0V00:00:0000:00:0000:00:00
PU1XMG-162026-08-30 11:59:54-22.74121-43.0958161°68km/h9985m3.3m/s-35.3°C11.4%288.2hPa0V00:00:0000:00:0000:00:00
PU1XMG-162026-08-30 11:59:49-22.74162-43.0965861°62km/h9960m4.8m/s-35.1°C11.6%289.2hPa0V00:00:0000:00:0000:00:00
PU1XMG-162026-08-30 11:59:43-22.74208-43.0975464°69km/h9930m3.4m/s-35.0°C11.4%290.5hPa0V00:00:0000:00:0000:00:00
PU1XMG-162026-08-30 11:59:38-22.74248-43.0983563°66km/h9905m6.3m/s-34.8°C11.2%291.4hPa0V00:00:0000:00:0000:00:00
PU1XMG-162026-08-30 11:59:33-22.74284-43.0991265°62km/h9883m5.6m/s-34.6°C11.2%292.4hPa0V00:00:0000:00:0000:00:00
PU1XMG-162026-08-30 11:59:28-22.74319-43.0999167°64km/h9860m5.7m/s-34.4°C11.0%293.4hPa0V00:00:0000:00:0000:00:00
PU1XMG-162026-08-30 11:59:23-22.74360-43.1008764°64km/h9831m4.3m/s-34.1°C10.9%294.6hPa0V00:00:0000:00:0000:00:00
PU1XMG-162026-08-30 11:59:17-22.74397-43.1016564°66km/h9807m4.7m/s-33.9°C10.7%295.6hPa0V00:00:0000:00:0000:00:00
PU1XMG-162026-08-30 11:59:12-22.74435-43.1024766°66km/h9784m5.2m/s-33.7°C10.6%296.6hPa0V00:00:0000:00:0000:00:00
PU1XMG-162026-08-30 11:59:06-22.74477-43.1034562°66km/h9755m6.6m/s-33.4°C10.3%297.8hPa0V00:00:0000:00:0000:00:00
PU1XMG-162026-08-30 11:59:01-22.74518-43.1041962°64km/h9730m4.1m/s-33.2°C10.2%298.9hPa0V00:00:0000:00:0000:00:00
PU1XMG-162026-08-30 11:58:56-22.74556-43.1050063°68km/h9707m4.5m/s-32.9°C10.1%299.8hPa0V00:00:0000:00:0000:00:00
PU1XMG-162026-08-30 11:58:50-22.74600-43.1059565°60km/h9677m4.5m/s-32.7°C9.9%301.0hPa0V00:00:0000:00:0000:00:00
PU1XMG-162026-08-30 11:58:44-22.74645-43.1068660°68km/h9648m4.6m/s-32.4°C9.7%302.3hPa0V00:00:0000:00:0000:00:00
PU1XMG-162026-08-30 11:58:38-22.74693-43.1078163°62km/h9619m6.2m/s-32.2°C9.7%303.5hPa0V00:00:0000:00:0000:00:00
PU1XMG-162026-08-30 11:58:33-22.74729-43.1085364°58km/h9594m5.9m/s-32.0°C9.6%304.6hPa0V00:00:0000:00:0000:00:00
PU1XMG-162026-08-30 11:58:24-22.74803-43.1098860°64km/h9550m5.2m/s-31.5°C9.3%306.5hPa0V00:00:0000:00:0000:00:00
PU1XMG-162026-08-30 11:58:18-22.74850-43.1107660°62km/h9520m4.5m/s-31.3°C9.2%307.9hPa0V00:00:0000:00:0000:00:00
PU1XMG-162026-08-30 11:58:12-22.74901-43.1116459°62km/h9491m6.1m/s-31.0°C9.1%309.1hPa0V00:00:0000:00:0000:00:00
PU1XMG-162026-08-30 11:58:07-22.74940-43.1123661°62km/h9467m5.6m/s-30.8°C9.1%310.2hPa0V00:00:0000:00:0000:00:00
PU1XMG-162026-08-30 11:57:55-22.75039-43.1140060°64km/h9408m4.7m/s-30.3°C8.8%312.7hPa0V00:00:0000:00:0000:00:00
PU1XMG-162026-08-30 11:57:44-22.75138-43.1156958°60km/h9349m5.7m/s-29.8°C8.5%315.4hPa0V00:00:0000:00:0000:00:00
PU1XMG-162026-08-30 11:57:17-22.75354-43.1192358°60km/h9221m4.6m/s-28.6°C7.7%321.0hPa0V00:00:0000:00:0000:00:00
PU1XMG-162026-08-30 11:57:00-22.75485-43.1215960°60km/h9134m5.1m/s-27.8°C7.4%324.9hPa0V00:00:0000:00:0000:00:00
PU1XMG-162026-08-30 11:56:54-22.75534-43.1224057°58km/h9104m4.8m/s-27.5°C7.2%326.2hPa0V00:00:0000:00:0000:00:00
PU1XMG-162026-08-30 11:56:50-22.75571-43.1230662°57km/h9080m7.0m/s-27.3°C7.1%327.3hPa0V00:00:0000:00:0000:00:00
PU1XMG-162026-08-30 11:56:43-22.75613-43.1239362°60km/h9050m5.9m/s-27.1°C6.9%328.7hPa0V00:00:0000:00:0000:00:00
PU1XMG-162026-08-30 11:56:38-22.75649-43.1246060°55km/h9026m5.8m/s-26.8°C6.8%329.8hPa0V00:00:0000:00:0000:00:00
PU1XMG-162026-08-30 11:56:32-22.75692-43.1253963°57km/h8995m5.7m/s-26.6°C6.8%331.1hPa0V00:00:0000:00:0000:00:00
PU1XMG-162026-08-30 11:56:27-22.75728-43.1261162°62km/h8972m3.5m/s-26.3°C6.7%332.3hPa0V00:00:0000:00:0000:00:00
PU1XMG-162026-08-30 11:56:22-22.75766-43.1268563°60km/h8948m5.5m/s-26.1°C6.6%333.4hPa0V00:00:0000:00:0000:00:00
PU1XMG-162026-08-30 11:56:16-22.75806-43.1276663°53km/h8918m5.9m/s-25.9°C6.5%334.7hPa0V00:00:0000:00:0000:00:00
PU1XMG-162026-08-30 11:56:12-22.75843-43.1283460°62km/h8894m3.7m/s-25.7°C6.4%336.0hPa0V00:00:0000:00:0000:00:00
PU1XMG-162026-08-30 11:56:05-22.75889-43.1291861°55km/h8864m4.0m/s-25.5°C6.3%337.3hPa0V00:00:0000:00:0000:00:00
PU1XMG-162026-08-30 11:56:00-22.75924-43.1298059°51km/h8839m6.6m/s-25.3°C6.3%338.5hPa0V00:00:0000:00:0000:00:00
PU1XMG-162026-08-30 11:55:55-22.75962-43.1304864°62km/h8813m6.5m/s-25.1°C6.2%339.8hPa0V00:00:0000:00:0000:00:00
PU1XMG-162026-08-30 11:55:50-22.75995-43.1312758°58km/h8786m4.9m/s-24.9°C6.1%340.9hPa0V00:00:0000:00:0000:00:00
PU1XMG-162026-08-30 11:55:44-22.76057-43.1318639°57km/h8750m5.9m/s-24.7°C6.0%342.6hPa0V00:00:0000:00:0000:00:00
PU1XMG-162026-08-30 11:55:39-22.76099-43.1324158°53km/h8722m7.6m/s-24.4°C5.9%343.9hPa0V00:00:0000:00:0000:00:00
PU1XMG-162026-08-30 11:55:34-22.76151-43.1331052°66km/h8685m6.8m/s-24.0°C5.8%345.6hPa0V00:00:0000:00:0000:00:00
PU1XMG-162026-08-30 11:55:29-22.76190-43.1335733°44km/h8651m7.0m/s-23.8°C5.7%347.2hPa0V00:00:0000:00:0000:00:00
PU1XMG-162026-08-30 11:55:23-22.76256-43.1342653°62km/h8617m3.1m/s-23.4°C5.6%348.9hPa0V00:00:0000:00:0000:00:00
PU1XMG-162026-08-30 11:55:18-22.76306-43.1347539°49km/h8587m8.7m/s-23.1°C5.4%350.3hPa0V00:00:0000:00:0000:00:00
PU1XMG-162026-08-30 11:55:14-22.76353-43.1352446°46km/h8559m6.0m/s-22.9°C5.4%351.6hPa0V00:00:0000:00:0000:00:00
PU1XMG-162026-08-30 11:55:08-22.76399-43.1356238°46km/h8536m7.0m/s-22.7°C5.2%352.7hPa0V00:00:0000:00:0000:00:00
PU1XMG-162026-08-30 11:55:02-22.76458-43.1361435°51km/h8502m5.3m/s-22.7°C4.6%354.3hPa0V00:00:0000:00:0000:00:00
PU1XMG-162026-08-30 11:54:56-22.76522-43.1366236°51km/h8476m5.5m/s-22.5°C4.5%355.6hPa0V00:00:0000:00:0000:00:00
PU1XMG-162026-08-30 11:54:51-22.76573-43.1370439°53km/h8452m6.3m/s-22.3°C4.6%356.7hPa0V00:00:0000:00:0000:00:00
PU1XMG-162026-08-30 11:54:45-22.76637-43.1375940°53km/h8423m5.2m/s-22.1°C4.5%358.1hPa0V00:00:0000:00:0000:00:00
PU1XMG-162026-08-30 11:54:40-22.76687-43.1380141°49km/h8401m5.2m/s-21.9°C4.5%359.2hPa0V00:00:0000:00:0000:00:00
PU1XMG-162026-08-30 11:54:34-22.76743-43.1385640°51km/h8373m3.1m/s-21.7°C4.5%360.5hPa0V00:00:0000:00:0000:00:00
PU1XMG-162026-08-30 11:54:29-22.76795-43.1389939°51km/h8349m5.9m/s-21.5°C4.6%361.7hPa0V00:00:0000:00:0000:00:00
PU1XMG-162026-08-30 11:54:23-22.76851-43.1395347°49km/h8323m5.4m/s-21.4°C4.6%363.1hPa0V00:00:0000:00:0000:00:00
PU1XMG-162026-08-30 11:54:18-22.76894-43.1400347°49km/h8300m4.8m/s-21.3°C4.7%364.3hPa0V00:00:0000:00:0000:00:00
PU1XMG-162026-08-30 11:54:12-22.76950-43.1405741°49km/h8273m3.9m/s-21.1°C4.6%365.6hPa0V00:00:0000:00:0000:00:00
PU1XMG-162026-08-30 11:54:07-22.76993-43.1410451°47km/h8248m5.7m/s-21.0°C4.5%366.7hPa0V00:00:0000:00:0000:00:00
PU1XMG-162026-08-30 11:54:01-22.77039-43.1416150°46km/h8218m6.5m/s-20.9°C4.5%368.1hPa0V00:00:0000:00:0000:00:00
PU1XMG-162026-08-30 11:53:56-22.77081-43.1420744°47km/h8192m4.9m/s-20.8°C4.6%369.4hPa0V00:00:0000:00:0000:00:00
PU1XMG-162026-08-30 11:53:50-22.77132-43.1426348°47km/h8162m4.8m/s-20.6°C4.6%370.9hPa0V00:00:0000:00:0000:00:00
PU1XMG-162026-08-30 11:53:45-22.77177-43.1431048°49km/h8141m4.3m/s-20.4°C4.6%372.2hPa0V00:00:0000:00:0000:00:00
PU1XMG-162026-08-30 11:53:39-22.77231-43.1437549°55km/h8110m4.6m/s-20.2°C4.6%373.6hPa0V00:00:0000:00:0000:00:00
PU1XMG-162026-08-30 11:53:33-22.77280-43.1444053°47km/h8082m5.5m/s-20.0°C4.8%375.1hPa0V00:00:0000:00:0000:00:00
PU1XMG-162026-08-30 11:53:28-22.77316-43.1449058°47km/h8058m4.2m/s-19.9°C4.9%376.4hPa0V00:00:0000:00:0000:00:00
PU1XMG-162026-08-30 11:53:23-22.77357-43.1455355°46km/h8028m6.1m/s-19.7°C4.8%377.8hPa0V00:00:0000:00:0000:00:00
PU1XMG-162026-08-30 11:53:16-22.77395-43.1461962°49km/h7996m5.7m/s-19.4°C4.7%379.5hPa0V00:00:0000:00:0000:00:00
PU1XMG-162026-08-30 11:53:10-22.77436-43.1469361°55km/h7966m5.4m/s-19.2°C4.7%380.9hPa0V00:00:0000:00:0000:00:00
PU1XMG-162026-08-30 11:53:04-22.77478-43.1476758°53km/h7937m3.8m/s-18.9°C4.8%382.4hPa0V00:00:0000:00:0000:00:00
PU1XMG-162026-08-30 11:52:58-22.77521-43.1483963°51km/h7906m2.4m/s-18.7°C4.7%383.9hPa0V00:00:0000:00:0000:00:00
PU1XMG-162026-08-30 11:52:54-22.77549-43.1489961°49km/h7885m4.9m/s-18.5°C4.7%385.1hPa0V00:00:0000:00:0000:00:00
PU1XMG-162026-08-30 11:52:47-22.77589-43.1497360°51km/h7853m3.1m/s-18.2°C4.6%386.8hPa0V00:00:0000:00:0000:00:00
PU1XMG-162026-08-30 11:52:41-22.77627-43.1504560°49km/h7822m4.1m/s-18.0°C4.7%388.2hPa0V00:00:0000:00:0000:00:00
PU1XMG-162026-08-30 11:52:36-22.77664-43.1510758°60km/h7797m6.2m/s-17.9°C4.8%389.6hPa0V00:00:0000:00:0000:00:00
PU1XMG-162026-08-30 11:52:30-22.77708-43.1518659°51km/h7767m7.2m/s-17.9°C5.0%391.3hPa0V00:00:0000:00:0000:00:00
PU1XMG-162026-08-30 11:52:24-22.77745-43.1526263°55km/h7731m3.5m/s-17.9°C5.3%393.1hPa0V00:00:0000:00:0000:00:00
PU1XMG-162026-08-30 11:52:19-22.77776-43.1532564°51km/h7708m3.7m/s-17.8°C5.6%394.3hPa0V00:00:0000:00:0000:00:00
PU1XMG-162026-08-30 11:52:14-22.77806-43.1539060°57km/h7686m5.7m/s-17.8°C5.7%395.6hPa0V00:00:0000:00:0000:00:00
PU1XMG-162026-08-30 11:52:08-22.77856-43.1546548°57km/h7659m3.5m/s-17.7°C5.5%396.9hPa0V00:00:0000:00:0000:00:00
PU1XMG-162026-08-30 11:52:03-22.77899-43.1554666°62km/h7622m8.4m/s-17.5°C5.1%398.9hPa0V00:00:0000:00:0000:00:00
PU1XMG-162026-08-30 11:51:57-22.77935-43.1561960°57km/h7593m3.9m/s-17.3°C5.1%400.5hPa0V00:00:0000:00:0000:00:00
PU1XMG-162026-08-30 11:51:52-22.77971-43.1568257°62km/h7570m4.1m/s-17.1°C4.9%401.8hPa0V00:00:0000:00:0000:00:00
PU1XMG-162026-08-30 11:51:47-22.78015-43.1575259°60km/h7546m5.0m/s-17.0°C4.8%403.1hPa0V00:00:0000:00:0000:00:00
PU1XMG-162026-08-30 11:51:41-22.78058-43.1583563°57km/h7519m4.0m/s-16.7°C4.7%404.7hPa0V00:00:0000:00:0000:00:00
PU1XMG-162026-08-30 11:51:36-22.78102-43.1592459°66km/h7485m6.4m/s-16.5°C4.6%406.3hPa0V00:00:0000:00:0000:00:00
PU1XMG-162026-08-30 11:51:30-22.78145-43.1599259°58km/h7458m4.6m/s-16.3°C4.5%407.7hPa0V00:00:0000:00:0000:00:00
PU1XMG-162026-08-30 11:51:25-22.78182-43.1608265°64km/h7428m3.0m/s-16.1°C4.4%409.2hPa0V00:00:0000:00:0000:00:00
PU1XMG-162026-08-30 11:51:19-22.78221-43.1615261°58km/h7398m3.1m/s-15.9°C4.3%410.9hPa0V00:00:0000:00:0000:00:00
PU1XMG-162026-08-30 11:51:14-22.78267-43.1623261°53km/h7368m5.6m/s-15.8°C4.4%412.5hPa0V00:00:0000:00:0000:00:00
PU1XMG-162026-08-30 11:51:07-22.78313-43.1631560°64km/h7341m5.5m/s-15.6°C4.5%414.0hPa0V00:00:0000:00:0000:00:00
PU1XMG-162026-08-30 11:51:02-22.78354-43.1638658°64km/h7317m7.6m/s-15.5°C4.5%415.4hPa0V00:00:0000:00:0000:00:00
PU1XMG-162026-08-30 11:50:56-22.78405-43.1646653°58km/h7286m5.7m/s-15.3°C4.4%417.1hPa0V00:00:0000:00:0000:00:00
PU1XMG-162026-08-30 11:50:51-22.78451-43.1653054°60km/h7263m5.5m/s-15.2°C4.6%418.4hPa0V00:00:0000:00:0000:00:00
PU1XMG-162026-08-30 11:50:45-22.78506-43.1661253°60km/h7237m4.9m/s-15.1°C5.4%419.8hPa0V00:00:0000:00:0000:00:00
PU1XMG-162026-08-30 11:50:39-22.78563-43.1669150°62km/h7208m7.1m/s-14.8°C5.4%421.4hPa0V00:00:0000:00:0000:00:00
PU1XMG-162026-08-30 11:50:34-22.78616-43.1676254°71km/h7182m3.7m/s-14.6°C5.4%423.0hPa0V00:00:0000:00:0000:00:00
PU1XMG-162026-08-30 11:50:29-22.78669-43.1683552°66km/h7158m5.8m/s-14.4°C5.1%424.1hPa0V00:00:0000:00:0000:00:00
PU1XMG-162026-08-30 11:50:23-22.78737-43.1691649°69km/h7132m5.3m/s-14.2°C4.6%425.7hPa0V00:00:0000:00:0000:00:00
PU1XMG-162026-08-30 11:50:17-22.78803-43.1700252°64km/h7103m5.9m/s-13.9°C4.5%427.4hPa0V00:00:0000:00:0000:00:00
PU1XMG-162026-08-30 11:50:11-22.78862-43.1707849°57km/h7073m5.6m/s-13.6°C4.2%428.9hPa0V00:00:0000:00:0000:00:00
PU1XMG-162026-08-30 11:50:06-22.78912-43.1714153°64km/h7050m6.1m/s-13.4°C3.9%430.2hPa0V00:00:0000:00:0000:00:00
PU1XMG-162026-08-30 11:50:01-22.78964-43.1721149°58km/h7025m3.9m/s-13.2°C3.8%431.6hPa0V00:00:0000:00:0000:00:00
PU1XMG-162026-08-30 11:49:55-22.79035-43.1728854°73km/h7002m6.6m/s-13.1°C3.5%433.0hPa0V00:00:0000:00:0000:00:00
PU1XMG-162026-08-30 11:49:49-22.79090-43.1738260°62km/h6957m6.3m/s-12.8°C3.6%435.6hPa0V00:00:0000:00:0000:00:00
PU1XMG-162026-08-30 11:49:45-22.79140-43.1745651°71km/h6928m5.3m/s-12.6°C3.8%437.1hPa0V00:00:0000:00:0000:00:00
PU1XMG-162026-08-30 11:49:39-22.79189-43.1753159°64km/h6899m4.8m/s-12.4°C3.8%438.8hPa0V00:00:0000:00:0000:00:00
PU1XMG-162026-08-30 11:49:34-22.79234-43.1760058°62km/h6868m4.1m/s-12.1°C4.0%440.6hPa0V00:00:0000:00:0000:00:00
PU1XMG-162026-08-30 11:49:28-22.79286-43.1768055°55km/h6838m4.3m/s-11.9°C4.3%442.5hPa0V00:00:0000:00:0000:00:00
PU1XMG-162026-08-30 11:49:22-22.79335-43.1775856°60km/h6811m5.0m/s-11.7°C4.6%444.0hPa0V00:00:0000:00:0000:00:00
PU1XMG-162026-08-30 11:49:16-22.79393-43.1783948°66km/h6783m5.8m/s-11.5°C5.1%445.6hPa0V00:00:0000:00:0000:00:00
PU1XMG-162026-08-30 11:49:10-22.79451-43.1790855°57km/h6744m10.4m/s-11.3°C5.8%447.7hPa0V00:00:0000:00:0000:00:00
PU1XMG-162026-08-30 11:49:05-22.79489-43.1796764°42km/h6706m5.5m/s-11.0°C5.7%450.1hPa0V00:00:0000:00:0000:00:00
PU1XMG-162026-08-30 11:49:00-22.79516-43.1801051°46km/h6680m4.6m/s-10.9°C5.7%451.7hPa0V00:00:0000:00:0000:00:00
PU1XMG-162026-08-30 11:48:55-22.79572-43.1806530°53km/h6647m6.7m/s-11.2°C15.4%453.6hPa0V00:00:0000:00:0000:00:00
PU1XMG-162026-08-30 11:48:48-22.79632-43.1811450°51km/h6615m9.4m/s-11.2°C22.1%455.6hPa0V00:00:0000:00:0000:00:00
PU1XMG-162026-08-30 11:48:38-22.79719-43.1820639°49km/h6555m5.4m/s-10.8°C18.9%459.1hPa0V00:00:0000:00:0000:00:00
PU1XMG-162026-08-30 11:48:33-22.79760-43.1824251°42km/h6525m7.1m/s-10.6°C18.4%460.7hPa0V00:00:0000:00:0000:00:00
PU1XMG-162026-08-30 11:48:27-22.79787-43.1830067°37km/h6495m4.0m/s-10.3°C14.1%462.6hPa0V00:00:0000:00:0000:00:00
PU1XMG-162026-08-30 11:48:22-22.79810-43.1834860°37km/h6468m7.4m/s-10.0°C11.9%464.2hPa0V00:00:0000:00:0000:00:00
PU1XMG-162026-08-30 11:48:17-22.79834-43.1838857°35km/h6444m3.5m/s-9.8°C11.5%465.7hPa0V00:00:0000:00:0000:00:00
PU1XMG-162026-08-30 11:48:11-22.79867-43.1843944°31km/h6411m5.3m/s-9.5°C10.7%467.7hPa0V00:00:0000:00:0000:00:00
PU1XMG-162026-08-30 11:48:05-22.79903-43.1848458°44km/h6378m5.2m/s-9.3°C10.1%469.7hPa0V00:00:0000:00:0000:00:00
PU1XMG-162026-08-30 11:48:00-22.79923-43.1853679°42km/h6354m5.9m/s-9.2°C10.5%471.0hPa0V00:00:0000:00:0000:00:00
PU1XMG-162026-08-30 11:47:56-22.79944-43.1857948°31km/h6327m6.8m/s-9.0°C9.4%472.6hPa0V00:00:0000:00:0000:00:00
PU1XMG-162026-08-30 11:47:49-22.79975-43.1862146°33km/h6293m4.4m/s-8.7°C11.0%474.9hPa0V00:00:0000:00:0000:00:00
PU1XMG-162026-08-30 11:47:43-22.80020-43.1866448°40km/h6265m4.3m/s-8.5°C11.5%476.5hPa0V00:00:0000:00:0000:00:00
PU1XMG-162026-08-30 11:47:32-22.80084-43.1874542°35km/h6208m5.1m/s-8.0°C9.4%480.1hPa0V00:00:0000:00:0000:00:00
PU1XMG-162026-08-30 11:47:27-22.80122-43.1878246°40km/h6184m5.5m/s-7.8°C8.1%481.4hPa0V00:00:0000:00:0000:00:00
PU1XMG-162026-08-30 11:47:21-22.80166-43.1882745°38km/h6151m7.2m/s-7.5°C6.1%483.3hPa0V00:00:0000:00:0000:00:00
PU1XMG-162026-08-30 11:47:17-22.80208-43.1886640°47km/h6123m6.2m/s-7.3°C4.3%485.1hPa0V00:00:0000:00:0000:00:00
PU1XMG-162026-08-30 11:47:12-22.80254-43.1890750°46km/h6096m7.2m/s-7.2°C4.4%486.7hPa0V00:00:0000:00:0000:00:00
PU1XMG-162026-08-30 11:47:06-22.80288-43.1895457°38km/h6067m5.0m/s-7.0°C6.3%488.7hPa0V00:00:0000:00:0000:00:00
PU1XMG-162026-08-30 11:47:00-22.80334-43.1898924°40km/h6041m3.4m/s-7.0°C13.4%490.5hPa0V00:00:0000:00:0000:00:00
PU1XMG-162026-08-30 11:46:54-22.80371-43.1903673°40km/h6002m6.5m/s-7.2°C18.1%492.9hPa0V00:00:0000:00:0000:00:00
PU1XMG-162026-08-30 11:46:48-22.80398-43.1907746°29km/h5966m7.7m/s-7.3°C18.9%495.2hPa0V00:00:0000:00:0000:00:00
PU1XMG-162026-08-30 11:46:42-22.80425-43.1911462°42km/h5921m6.0m/s-7.1°C20.2%498.1hPa0V00:00:0000:00:0000:00:00
PU1XMG-162026-08-30 11:46:37-22.80454-43.1917159°44km/h5896m4.5m/s-6.9°C22.0%499.6hPa0V00:00:0000:00:0000:00:00
PU1XMG-162026-08-30 11:46:31-22.80487-43.1923063°47km/h5855m5.7m/s-6.7°C24.5%502.2hPa0V00:00:0000:00:0000:00:00
PU1XMG-162026-08-30 11:46:26-22.80502-43.1927883°33km/h5827m7.0m/s-6.5°C22.9%504.0hPa0V00:00:0000:00:0000:00:00
PU1XMG-162026-08-30 11:46:21-22.80511-43.1932162°31km/h5802m6.0m/s-6.2°C22.2%505.7hPa0V00:00:0000:00:0000:00:00
PU1XMG-162026-08-30 11:46:16-22.80532-43.1935554°33km/h5769m2.9m/s-5.9°C18.6%507.9hPa0V00:00:0000:00:0000:00:00
PU1XMG-162026-08-30 11:46:11-22.80556-43.1940570°40km/h5743m3.8m/s-5.8°C14.2%509.6hPa0V00:00:0000:00:0000:00:00
PU1XMG-162026-08-30 11:46:05-22.80564-43.1945073°27km/h5717m6.8m/s-5.9°C21.0%511.1hPa0V00:00:0000:00:0000:00:00
PU1XMG-162026-08-30 11:46:00-22.80578-43.1949585°35km/h5685m8.2m/s-5.8°C27.3%513.0hPa0V00:00:0000:00:0000:00:00
PU1XMG-162026-08-30 11:45:55-22.80580-43.1952979°27km/h5657m6.0m/s-5.7°C30.7%514.9hPa0V00:00:0000:00:0000:00:00
PU1XMG-162026-08-30 11:45:49-22.80604-43.1958359°33km/h5623m5.3m/s-5.4°C32.8%517.4hPa0V00:00:0000:00:0000:00:00
PU1XMG-162026-08-30 11:45:44-22.80605-43.19628107°37km/h5587m5.6m/s-5.1°C34.7%519.9hPa0V00:00:0000:00:0000:00:00
PU1XMG-162026-08-30 11:45:39-22.80595-43.1967389°26km/h5562m6.8m/s-5.0°C31.5%521.3hPa0V00:00:0000:00:0000:00:00
PU1XMG-162026-08-30 11:45:33-22.80598-43.1971591°37km/h5520m5.5m/s-5.0°C43.4%524.1hPa0V00:00:0000:00:0000:00:00
PU1XMG-162026-08-30 11:45:28-22.80597-43.1975083°16km/h5495m4.5m/s-5.0°C48.1%525.8hPa0V00:00:0000:00:0000:00:00
PU1XMG-162026-08-30 11:45:23-22.80610-43.1978971°44km/h5471m5.8m/s-4.8°C48.5%527.5hPa0V00:00:0000:00:0000:00:00
PU1XMG-162026-08-30 11:45:17-22.80610-43.1984291°27km/h5432m6.0m/s-4.5°C44.5%530.1hPa0V00:00:0000:00:0000:00:00
PU1XMG-162026-08-30 11:45:12-22.80620-43.1987775°37km/h5399m3.8m/s-4.1°C21.5%532.3hPa0V00:00:0000:00:0000:00:00
PU1XMG-162026-08-30 11:45:07-22.80635-43.1993084°33km/h5376m4.5m/s-3.8°C16.3%534.1hPa0V00:00:0000:00:0000:00:00
PU1XMG-162026-08-30 11:45:02-22.80646-43.1996655°26km/h5339m4.3m/s-3.5°C13.7%536.3hPa0V00:00:0000:00:0000:00:00
PU1XMG-162026-08-30 11:44:55-22.80655-43.20013101°37km/h5303m7.2m/s-3.3°C13.9%538.7hPa0V00:00:0000:00:0000:00:00
PU1XMG-162026-08-30 11:44:49-22.80656-43.2008386°40km/h5264m4.4m/s-3.6°C18.6%541.4hPa0V00:00:0000:00:0000:00:00
PU1XMG-162026-08-30 11:44:40-22.80650-43.2015985°26km/h5206m5.0m/s-3.5°C19.9%545.3hPa0V00:00:0000:00:0000:00:00
PU1XMG-162026-08-30 11:44:34-22.80648-43.2020097°22km/h5169m6.6m/s-3.4°C26.2%547.7hPa0V00:00:0000:00:0000:00:00
PU1XMG-162026-08-30 11:44:28-22.80655-43.2023583°26km/h5135m5.6m/s-3.4°C36.2%550.0hPa0V00:00:0000:00:0000:00:00
PU1XMG-162026-08-30 11:44:22-22.80661-43.20276111°15km/h5099m5.6m/s-3.2°C39.0%552.7hPa0V00:00:0000:00:0000:00:00
PU1XMG-162026-08-30 11:44:16-22.80662-43.2029861°16km/h5062m8.7m/s-2.9°C41.5%555.2hPa0V00:00:0000:00:0000:00:00
PU1XMG-162026-08-30 11:44:11-22.80678-43.2031850°16km/h5028m5.1m/s-2.7°C47.3%557.6hPa0V00:00:0000:00:0000:00:00
PU1XMG-162026-08-30 11:44:05-22.80701-43.2033541°26km/h4998m3.0m/s-2.6°C54.4%559.7hPa0V00:00:0000:00:0000:00:00
PU1XMG-162026-08-30 11:44:00-22.80715-43.2037386°33km/h4971m6.5m/s-2.4°C59.0%561.7hPa0V00:00:0000:00:0000:00:00
PU1XMG-162026-08-30 11:43:54-22.80719-43.2040677°13km/h4934m9.1m/s-2.1°C58.6%564.0hPa0V00:00:0000:00:0000:00:00
PU1XMG-162026-08-30 11:43:49-22.80725-43.2042349°15km/h4904m6.8m/s-2.1°C67.4%566.1hPa0V00:00:0000:00:0000:00:00
PU1XMG-162026-08-30 11:43:43-22.80743-43.2044343°29km/h4861m7.9m/s-2.1°C71.1%569.2hPa0V00:00:0000:00:0000:00:00
PU1XMG-162026-08-30 11:43:34-22.80786-43.2051585°27km/h4812m6.2m/s-2.0°C71.6%573.1hPa0V00:00:0000:00:0000:00:00
PU1XMG-162026-08-30 11:43:29-22.80791-43.2053668°9km/h4775m4.9m/s-1.9°C74.1%575.8hPa0V00:00:0000:00:0000:00:00
PU1XMG-162026-08-30 11:43:22-22.80808-43.2055679°24km/h4738m9.1m/s-1.8°C73.1%578.3hPa0V00:00:0000:00:0000:00:00
PU1XMG-162026-08-30 11:43:16-22.80800-43.2059090°16km/h4697m6.2m/s-1.5°C73.3%581.3hPa0V00:00:0000:00:0000:00:00
PU1XMG-162026-08-30 11:43:11-22.80800-43.2060598°13km/h4665m3.3m/s-1.3°C74.2%583.5hPa0V00:00:0000:00:0000:00:00
PU1XMG-162026-08-30 11:43:00-22.80795-43.2066653°22km/h4604m8.4m/s-0.8°C74.2%588.0hPa0V00:00:0000:00:0000:00:00
PU1XMG-162026-08-30 11:42:54-22.80813-43.2069049°13km/h4563m8.2m/s-0.6°C73.7%591.1hPa0V00:00:0000:00:0000:00:00
PU1XMG-162026-08-30 11:42:48-22.80819-43.20704116°15km/h4524m8.1m/s-0.5°C74.9%593.9hPa0V00:00:0000:00:0000:00:00
PU1XMG-162026-08-30 11:42:42-22.80812-43.2073773°26km/h4488m5.4m/s-0.3°C79.1%596.6hPa0V00:00:0000:00:0000:00:00
PU1XMG-162026-08-30 11:42:36-22.80813-43.20766102°27km/h4448m6.2m/s-0.1°C83.0%599.6hPa0V00:00:0000:00:0000:00:00
PU1XMG-162026-08-30 11:42:30-22.80794-43.20818113°37km/h4412m6.3m/s0.1°C85.0%602.4hPa0V00:00:0000:00:0000:00:00
PU1XMG-162026-08-30 11:42:26-22.80788-43.2085272°20km/h4385m6.4m/s0.3°C83.8%604.4hPa0V00:00:0000:00:0000:00:00
PU1XMG-162026-08-30 11:42:20-22.80791-43.20881121°24km/h4349m6.2m/s0.7°C82.4%607.2hPa0V00:00:0000:00:0000:00:00
PU1XMG-162026-08-30 11:42:14-22.80779-43.2091380°20km/h4311m6.0m/s1.0°C70.2%610.0hPa0V00:00:0000:00:0000:00:00
PU1XMG-162026-08-30 11:42:09-22.80783-43.2093797°18km/h4276m4.7m/s1.2°C68.4%612.7hPa0V00:00:0000:00:0000:00:00
PU1XMG-162026-08-30 11:42:03-22.80784-43.20982102°26km/h4237m10.2m/s1.4°C73.3%615.5hPa0V00:00:0000:00:0000:00:00
PU1XMG-162026-08-30 11:41:58-22.80778-43.2101373°18km/h4200m9.0m/s1.5°C79.0%618.4hPa0V00:00:0000:00:0000:00:00
PU1XMG-162026-08-30 11:41:52-22.80799-43.2106282°42km/h4163m7.4m/s1.8°C77.5%621.2hPa0V00:00:0000:00:0000:00:00
PU1XMG-162026-08-30 11:41:47-22.80799-43.2111392°40km/h4128m10.4m/s2.1°C75.1%623.9hPa0V00:00:0000:00:0000:00:00
PU1XMG-162026-08-30 11:41:41-22.80812-43.2117485°33km/h4083m6.3m/s2.4°C74.8%627.4hPa0V00:00:0000:00:0000:00:00
PU1XMG-162026-08-30 11:41:36-22.80819-43.2123683°53km/h4046m6.5m/s2.7°C73.6%630.1hPa0V00:00:0000:00:0000:00:00
PU1XMG-162026-08-30 11:41:30-22.80839-43.2131260°46km/h4009m5.7m/s3.0°C69.7%633.0hPa0V00:00:0000:00:0000:00:00
PU1XMG-162026-08-30 11:41:25-22.80856-43.2136580°42km/h3977m6.1m/s3.3°C67.8%635.5hPa0V00:00:0000:00:0000:00:00
PU1XMG-162026-08-30 11:41:19-22.80871-43.2141280°26km/h3933m8.0m/s3.7°C64.5%639.0hPa0V00:00:0000:00:0000:00:00
PU1XMG-162026-08-30 11:41:14-22.80875-43.2146486°47km/h3897m7.4m/s4.0°C62.4%642.0hPa0V00:00:0000:00:0000:00:00
PU1XMG-162026-08-30 11:41:09-22.80872-43.21515109°31km/h3862m6.3m/s4.3°C63.2%644.7hPa0V00:00:0000:00:0000:00:00
PU1XMG-162026-08-30 11:41:03-22.80870-43.2156572°26km/h3822m7.9m/s4.6°C65.0%647.9hPa0V00:00:0000:00:0000:00:00
PU1XMG-162026-08-30 11:40:58-22.80879-43.2160780°42km/h3790m7.7m/s4.9°C62.4%650.4hPa0V00:00:0000:00:0000:00:00
PU1XMG-162026-08-30 11:40:53-22.80891-43.2165379°27km/h3758m9.0m/s5.1°C61.3%652.7hPa0V00:00:0000:00:0000:00:00
PU1XMG-162026-08-30 11:40:47-22.80886-43.2171297°26km/h3716m5.6m/s5.5°C60.2%656.1hPa0V00:00:0000:00:0000:00:00
PU1XMG-162026-08-30 11:40:41-22.80904-43.2174972°31km/h3675m7.0m/s5.8°C57.5%659.4hPa0V00:00:0000:00:0000:00:00
PU1XMG-162026-08-30 11:40:35-22.80905-43.2180386°33km/h3640m4.9m/s6.2°C58.3%662.6hPa0V00:00:0000:00:0000:00:00
PU1XMG-162026-08-30 11:40:29-22.80911-43.2186179°29km/h3598m6.2m/s6.5°C56.9%665.8hPa0V00:00:0000:00:0000:00:00
PU1XMG-162026-08-30 11:40:23-22.80920-43.2190083°27km/h3554m6.5m/s6.7°C58.0%669.3hPa0V00:00:0000:00:0000:00:00
PU1XMG-162026-08-30 11:40:14-22.80923-43.2197287°40km/h3488m8.1m/s6.9°C68.9%674.6hPa0V00:00:0000:00:0000:00:00
PU1XMG-162026-08-30 11:40:09-22.80931-43.2201361°27km/h3454m7.1m/s7.2°C69.2%677.5hPa0V00:00:0000:00:0000:00:00
PU1XMG-162026-08-30 11:40:03-22.80949-43.2204357°20km/h3413m5.3m/s7.4°C72.2%680.8hPa0V00:00:0000:00:0000:00:00
PU1XMG-162026-08-30 11:39:58-22.80953-43.2207879°33km/h3378m5.6m/s7.7°C72.0%683.6hPa0V00:00:0000:00:0000:00:00
PU1XMG-162026-08-30 11:39:53-22.80971-43.2211162°22km/h3345m7.8m/s7.7°C84.4%686.3hPa0V00:00:0000:00:0000:00:00
PU1XMG-162026-08-30 11:39:47-22.80989-43.2215375°31km/h3304m9.8m/s8.0°C87.1%689.7hPa0V00:00:0000:00:0000:00:00
PU1XMG-162026-08-30 11:39:39-22.81013-43.2221556°29km/h3252m5.7m/s8.4°C89.8%694.1hPa0V00:00:0000:00:0000:00:00
PU1XMG-162026-08-30 11:39:34-22.81023-43.2224591°31km/h3219m5.7m/s8.6°C90.5%696.9hPa0V00:00:0000:00:0000:00:00
PU1XMG-162026-08-30 11:39:28-22.81031-43.2228275°11km/h3183m6.2m/s8.8°C93.3%700.0hPa0V00:00:0000:00:0000:00:00
PU1XMG-162026-08-30 11:39:22-22.81046-43.2230948°18km/h3143m6.5m/s9.1°C97.3%703.4hPa0V00:00:0000:00:0000:00:00
PU1XMG-162026-08-30 11:39:17-22.81058-43.2233281°18km/h3108m6.1m/s9.5°C95.8%706.5hPa0V00:00:0000:00:0000:00:00
PU1XMG-162026-08-30 11:39:11-22.81060-43.2236667°15km/h3067m8.8m/s9.8°C93.3%709.9hPa0V00:00:0000:00:0000:00:00
PU1XMG-162026-08-30 11:39:06-22.81080-43.2239359°27km/h3035m7.4m/s10.1°C90.1%712.6hPa0V00:00:0000:00:0000:00:00
PU1XMG-162026-08-30 11:38:49-22.81104-43.2246549°18km/h2931m7.0m/s11.0°C87.5%721.4hPa0V00:00:0000:00:0000:00:00
PU1XMG-162026-08-30 11:38:43-22.81131-43.2250169°24km/h2894m7.7m/s11.4°C86.2%724.5hPa0V00:00:0000:00:0000:00:00
PU1XMG-162026-08-30 11:38:38-22.81136-43.2251424°7km/h2862m4.3m/s11.6°C85.1%727.3hPa0V00:00:0000:00:0000:00:00
PU1XMG-162026-08-30 11:38:33-22.81145-43.2253164°22km/h2831m5.4m/s12.0°C83.5%730.3hPa0V00:00:0000:00:0000:00:00
PU1XMG-162026-08-30 11:38:27-22.81156-43.2256075°20km/h2792m6.8m/s12.3°C82.0%733.5hPa0V00:00:0000:00:0000:00:00
PU1XMG-162026-08-30 11:38:23-22.81156-43.2258058°13km/h2759m8.0m/s12.6°C80.8%736.3hPa0V00:00:0000:00:0000:00:00
PU1XMG-162026-08-30 11:38:16-22.81167-43.2260867°16km/h2722m6.3m/s13.0°C79.6%739.7hPa0V00:00:0000:00:0000:00:00
PU1XMG-162026-08-30 11:38:10-22.81165-43.2263493°16km/h2684m6.3m/s13.4°C77.8%743.1hPa0V00:00:0000:00:0000:00:00
PU1XMG-162026-08-30 11:38:05-22.81162-43.2265795°18km/h2652m8.1m/s13.6°C76.8%745.8hPa0V00:00:0000:00:0000:00:00
PU1XMG-162026-08-30 11:37:59-22.81167-43.2268554°18km/h2610m4.9m/s14.0°C75.6%749.4hPa0V00:00:0000:00:0000:00:00
PU1XMG-162026-08-30 11:37:54-22.81177-43.2270163°15km/h2580m10.0m/s14.2°C74.6%752.2hPa0V00:00:0000:00:0000:00:00
PU1XMG-162026-08-30 11:37:48-22.81172-43.22734109°24km/h2534m5.9m/s14.6°C73.3%756.1hPa0V00:00:0000:00:0000:00:00
PU1XMG-162026-08-30 11:37:43-22.81170-43.2275159°11km/h2505m5.1m/s14.9°C72.6%758.8hPa0V00:00:0000:00:0000:00:00
PU1XMG-162026-08-30 11:37:37-22.81169-43.2277790°16km/h2469m7.2m/s15.2°C71.5%762.0hPa0V00:00:0000:00:0000:00:00
PU1XMG-162026-08-30 11:37:31-22.81171-43.2280980°22km/h2431m7.0m/s15.6°C70.2%765.3hPa0V00:00:0000:00:0000:00:00
PU1XMG-162026-08-30 11:37:25-22.81175-43.2283027°11km/h2394m6.8m/s15.9°C69.0%768.6hPa0V00:00:0000:00:0000:00:00
PU1XMG-162026-08-30 11:37:20-22.81177-43.2284590°20km/h2365m7.5m/s16.2°C68.4%771.1hPa0V00:00:0000:00:0000:00:00
PU1XMG-162026-08-30 11:37:14-22.81167-43.22884125°24km/h2328m4.9m/s16.5°C67.3%774.6hPa0V00:00:0000:00:0000:00:00
PU1XMG-162026-08-30 11:37:08-22.81154-43.2291181°11km/h2296m6.8m/s16.9°C66.2%777.8hPa0V00:00:0000:00:0000:00:00
PU1XMG-162026-08-30 11:37:03-22.81153-43.2292981°22km/h2270m4.9m/s17.1°C65.4%780.2hPa0V00:00:0000:00:0000:00:00
PU1XMG-162026-08-30 11:36:57-22.81156-43.2295883°18km/h2234m7.4m/s17.4°C64.5%783.4hPa0V00:00:0000:00:0000:00:00
PU1XMG-162026-08-30 11:36:52-22.81161-43.2299279°20km/h2200m5.9m/s17.7°C63.4%786.5hPa0V00:00:0000:00:0000:00:00
PU1XMG-162026-08-30 11:36:46-22.81165-43.2301879°13km/h2163m7.4m/s18.1°C62.2%790.0hPa0V00:00:0000:00:0000:00:00
PU1XMG-162026-08-30 11:36:41-22.81163-43.2304294°15km/h2132m6.7m/s18.2°C61.9%792.7hPa0V00:00:0000:00:0000:00:00
PU1XMG-162026-08-30 11:36:35-22.81154-43.23064106°16km/h2096m7.9m/s18.6°C60.9%795.9hPa0V00:00:0000:00:0000:00:00
PU1XMG-162026-08-30 11:36:30-22.81153-43.2309393°18km/h2063m5.6m/s18.8°C60.1%799.0hPa0V00:00:0000:00:0000:00:00
PU1XMG-162026-08-30 11:36:24-22.81146-43.23126113°15km/h2026m6.0m/s19.2°C59.2%802.5hPa0V00:00:0000:00:0000:00:00
PU1XMG-162026-08-30 11:36:19-22.81136-43.23149107°16km/h1994m6.6m/s19.4°C58.5%805.3hPa0V00:00:0000:00:0000:00:00
PU1XMG-162026-08-30 11:36:13-22.81131-43.2318392°24km/h1956m8.4m/s19.7°C57.8%808.9hPa0V00:00:0000:00:0000:00:00
PU1XMG-162026-08-30 11:36:08-22.81118-43.23214114°26km/h1923m9.0m/s20.0°C57.2%812.3hPa0V00:00:0000:00:0000:00:00
PU1XMG-162026-08-30 11:35:56-22.81090-43.23306117°27km/h1841m4.2m/s20.6°C56.0%819.8hPa0V00:00:0000:00:0000:00:00
PU1XMG-162026-08-30 11:35:51-22.81078-43.23344114°29km/h1807m7.6m/s20.9°C55.6%823.0hPa0V00:00:0000:00:0000:00:00
PU1XMG-162026-08-30 11:35:47-22.81062-43.23384115°31km/h1774m8.6m/s21.1°C55.8%826.1hPa0V00:00:0000:00:0000:00:00
PU1XMG-162026-08-30 11:35:41-22.81042-43.23418128°33km/h1738m5.2m/s21.2°C55.7%829.7hPa0V00:00:0000:00:0000:00:00
PU1XMG-162026-08-30 11:35:36-22.81019-43.23455124°37km/h1706m5.8m/s21.5°C55.0%832.6hPa0V00:00:0000:00:0000:00:00
PU1XMG-162026-08-30 11:35:30-22.80995-43.23500116°31km/h1666m6.1m/s21.8°C54.3%836.4hPa0V00:00:0000:00:0000:00:00
PU1XMG-162026-08-30 11:35:26-22.80973-43.23533129°33km/h1636m7.2m/s21.9°C54.3%839.4hPa0V00:00:0000:00:0000:00:00
PU1XMG-162026-08-30 11:35:21-22.80954-43.23564126°27km/h1603m5.3m/s22.1°C54.0%842.3hPa0V00:00:0000:00:0000:00:00
PU1XMG-162026-08-30 11:35:15-22.80924-43.23594140°29km/h1569m6.3m/s22.4°C53.3%845.9hPa0V00:00:0000:00:0000:00:00
PU1XMG-162026-08-30 11:35:08-22.80893-43.23635126°31km/h1531m6.6m/s22.5°C53.3%849.6hPa0V00:00:0000:00:0000:00:00
PU1XMG-162026-08-30 11:34:57-22.80832-43.23702131°24km/h1459m6.8m/s22.5°C56.4%856.5hPa0V00:00:0000:00:0000:00:00
PU1XMG-162026-08-30 11:34:52-22.80806-43.23725143°27km/h1426m7.7m/s22.6°C56.4%859.6hPa0V00:00:0000:00:0000:00:00
PU1XMG-162026-08-30 11:34:47-22.80781-43.23748138°27km/h1396m7.3m/s22.9°C55.8%862.9hPa0V00:00:0000:00:0000:00:00
PU1XMG-162026-08-30 11:34:42-22.80751-43.23773141°27km/h1360m6.1m/s23.0°C56.3%866.5hPa0V00:00:0000:00:0000:00:00
PU1XMG-162026-08-30 11:34:36-22.80727-43.23790136°22km/h1331m6.3m/s23.2°C56.0%869.3hPa0V00:00:0000:00:0000:00:00
PU1XMG-162026-08-30 11:34:31-22.80700-43.23812140°29km/h1302m6.4m/s23.0°C58.2%872.2hPa0V00:00:0000:00:0000:00:00
PU1XMG-162026-08-30 11:34:25-22.80671-43.23841136°24km/h1267m9.5m/s22.8°C61.5%875.4hPa0V00:00:0000:00:0000:00:00
PU1XMG-162026-08-30 11:34:20-22.80648-43.23854149°26km/h1228m5.3m/s22.9°C61.4%879.3hPa0V00:00:0000:00:0000:00:00
PU1XMG-162026-08-30 11:34:16-22.80624-43.23870160°22km/h1195m7.9m/s23.2°C60.5%882.8hPa0V00:00:0000:00:0000:00:00
PU1XMG-162026-08-30 11:34:10-22.80595-43.23873182°27km/h1161m7.3m/s23.2°C61.2%886.0hPa0V00:00:0000:00:0000:00:00
PU1XMG-162026-08-30 11:34:04-22.80554-43.23880160°31km/h1124m6.9m/s23.1°C63.0%889.6hPa0V00:00:0000:00:0000:00:00
PU1XMG-162026-08-30 11:34:00-22.80523-43.23894158°26km/h1093m4.5m/s23.0°C65.0%893.0hPa0V00:00:0000:00:0000:00:00
PU1XMG-162026-08-30 11:33:55-22.80498-43.23907163°22km/h1059m4.8m/s23.2°C64.5%896.6hPa0V00:00:0000:00:0000:00:00
PU1XMG-162026-08-30 11:33:48-22.80477-43.23920150°18km/h1023m6.3m/s23.2°C64.9%900.2hPa0V00:00:0000:00:0000:00:00
PU1XMG-162026-08-30 11:33:43-22.80456-43.23930165°16km/h990m6.9m/s23.0°C66.6%903.7hPa0V00:00:0000:00:0000:00:00
PU1XMG-162026-08-30 11:33:36-22.80444-43.23944132°18km/h952m7.7m/s22.9°C68.2%907.7hPa0V00:00:0000:00:0000:00:00
PU1XMG-162026-08-30 11:33:32-22.80426-43.23969130°22km/h921m7.3m/s23.0°C68.3%910.9hPa0V00:00:0000:00:0000:00:00
PU1XMG-162026-08-30 11:33:26-22.80409-43.24001132°18km/h885m6.4m/s22.9°C0%0hPa0V00:00:0000:00:0000:00:00
PU1XMG-162026-08-30 11:33:19-22.80401-43.24034106°20km/h845m5.0m/s22.9°C0%0hPa0V00:00:0000:00:0000:00:00
PU1XMG-162026-08-30 11:33:13-22.80394-43.2407293°24km/h807m5.6m/s23.2°C0%0hPa0V00:00:0000:00:0000:00:00
PU1XMG-162026-08-30 11:33:09-22.80390-43.2411193°26km/h779m4.5m/s23.2°C0%0hPa0V00:00:0000:00:0000:00:00
PU1XMG-162026-08-30 11:32:57-22.80397-43.2420173°27km/h707m4.2m/s23.6°C0%0hPa0V00:00:0000:00:0000:00:00
PU1XMG-162026-08-30 11:32:50-22.80406-43.2424982°37km/h674m6.8m/s0°C0%0hPa0V00:00:0000:00:0000:00:00
PU1XMG-162026-08-30 11:32:45-22.80421-43.2430680°42km/h639m5.8m/s0°C0%0hPa0V00:00:0000:00:0000:00:00
PU1XMG-162026-08-30 11:32:39-22.80433-43.2435678°37km/h608m6.6m/s0°C0%0hPa0V00:00:0000:00:0000:00:00
PU1XMG-162026-08-30 11:32:29-22.80467-43.2443050°29km/h553m3.5m/s0°C0%0hPa0V00:00:0000:00:0000:00:00
PU1XMG-162026-08-30 11:32:23-22.80495-43.2446758°29km/h518m5.4m/s0°C0%0hPa0V00:00:0000:00:0000:00:00
PU1XMG-162026-08-30 11:32:08-22.80566-43.2456068°29km/h429m6.7m/s0°C0%0hPa0V00:00:0000:00:0000:00:00


GPX KML Map

© wettersonde.net (DO2JMG) - 2026  -  -